<?xml version="1.0" encoding="UTF-8" standalone="no" ?>
<gpx xmlns="http://www.topografix.com/GPX/1/1" xmlns:xsi="http://www.w3.org/2001/XMLSchema-instance" xsi:schemaLocation="http://www.topografix.com/GPX/1/1 http://www.topografix.com/GPX/1/1/gpx.xsd" version="1.1" creator="VisuGPX - https://www.visugpx.com">
  <metadata>
    <name>64 - PEDESTRE - GR 1O8 A- Du pont de Peyrelue en aval du col du Pourtalet au col de Peyrelue et retour via la passerelle HS sur le Brousset.</name>
    <desc><![CDATA[Du soleil à la pluie et les pieds dans la neige. Campagne 2013 entretien du balisage.]]></desc>
  </metadata>
  <wpt lat="42.82443" lon="-0.39327">
    <ele>1487.033691</ele>
    <name><![CDATA[003]]></name>
    <desc><![CDATA[13-JUN-13 13:04:19]]></desc>
    <cmt><![CDATA[13-JUN-13 13:04:19]]></cmt>
  </wpt>
  <wpt lat="42.82442" lon="-0.39324">
    <ele>1487.514404</ele>
    <name><![CDATA[004]]></name>
    <desc><![CDATA[13-JUN-13 13:04:38]]></desc>
    <cmt><![CDATA[13-JUN-13 13:04:38]]></cmt>
  </wpt>
  <trk>
    <name><![CDATA[ACTIVE LOG 003]]></name>
    <trkseg>
      <trkpt lat="42.81847" lon="-0.39863">
        <ele>1588.716064</ele>
        <time>2013-06-13T08:14:45Z</time>
      </trkpt>
      <trkpt lat="42.81847" lon="-0.39863">
        <ele>1588.235352</ele>
        <time>2013-06-13T08:14:46Z</time>
      </trkpt>
      <trkpt lat="42.81846" lon="-0.39863">
        <ele>1588.235352</ele>
        <time>2013-06-13T08:14:47Z</time>
      </trkpt>
      <trkpt lat="42.81849" lon="-0.39865">
        <ele>1588.716064</ele>
        <time>2013-06-13T08:15:08Z</time>
      </trkpt>
      <trkpt lat="42.8185" lon="-0.39867">
        <ele>1589.196533</ele>
        <time>2013-06-13T08:15:27Z</time>
      </trkpt>
      <trkpt lat="42.81855" lon="-0.39871">
        <ele>1589.196533</ele>
        <time>2013-06-13T08:15:53Z</time>
      </trkpt>
      <trkpt lat="42.81863" lon="-0.39865">
        <ele>1589.196533</ele>
        <time>2013-06-13T08:16:07Z</time>
      </trkpt>
      <trkpt lat="42.81872" lon="-0.39853">
        <ele>1588.716064</ele>
        <time>2013-06-13T08:16:24Z</time>
      </trkpt>
      <trkpt lat="42.81881" lon="-0.39842">
        <ele>1588.235352</ele>
        <time>2013-06-13T08:16:41Z</time>
      </trkpt>
      <trkpt lat="42.81883" lon="-0.39836">
        <ele>1588.235352</ele>
        <time>2013-06-13T08:16:56Z</time>
      </trkpt>
      <trkpt lat="42.81885" lon="-0.39833">
        <ele>1588.235352</ele>
        <time>2013-06-13T08:17:24Z</time>
      </trkpt>
      <trkpt lat="42.81889" lon="-0.39827">
        <ele>1589.196533</ele>
        <time>2013-06-13T08:17:32Z</time>
      </trkpt>
      <trkpt lat="42.81895" lon="-0.3981">
        <ele>1591.599854</ele>
        <time>2013-06-13T08:17:47Z</time>
      </trkpt>
      <trkpt lat="42.81897" lon="-0.39806">
        <ele>1592.561279</ele>
        <time>2013-06-13T08:17:51Z</time>
      </trkpt>
      <trkpt lat="42.81906" lon="-0.39791">
        <ele>1594.003174</ele>
        <time>2013-06-13T08:18:05Z</time>
      </trkpt>
      <trkpt lat="42.81911" lon="-0.39775">
        <ele>1596.406738</ele>
        <time>2013-06-13T08:18:22Z</time>
      </trkpt>
      <trkpt lat="42.81913" lon="-0.39764">
        <ele>1599.290527</ele>
        <time>2013-06-13T08:18:33Z</time>
      </trkpt>
      <trkpt lat="42.81917" lon="-0.39752">
        <ele>1599.77124</ele>
        <time>2013-06-13T08:18:47Z</time>
      </trkpt>
      <trkpt lat="42.81921" lon="-0.39739">
        <ele>1601.693848</ele>
        <time>2013-06-13T08:19:02Z</time>
      </trkpt>
      <trkpt lat="42.81923" lon="-0.39728">
        <ele>1603.135742</ele>
        <time>2013-06-13T08:19:16Z</time>
      </trkpt>
      <trkpt lat="42.81927" lon="-0.39712">
        <ele>1605.539063</ele>
        <time>2013-06-13T08:19:31Z</time>
      </trkpt>
      <trkpt lat="42.81929" lon="-0.39701">
        <ele>1607.942383</ele>
        <time>2013-06-13T08:19:45Z</time>
      </trkpt>
      <trkpt lat="42.81929" lon="-0.39693">
        <ele>1609.864746</ele>
        <time>2013-06-13T08:19:57Z</time>
      </trkpt>
      <trkpt lat="42.81931" lon="-0.39682">
        <ele>1610.826172</ele>
        <time>2013-06-13T08:20:08Z</time>
      </trkpt>
      <trkpt lat="42.81938" lon="-0.39666">
        <ele>1612.749023</ele>
        <time>2013-06-13T08:20:24Z</time>
      </trkpt>
      <trkpt lat="42.81944" lon="-0.39652">
        <ele>1614.190918</ele>
        <time>2013-06-13T08:20:38Z</time>
      </trkpt>
      <trkpt lat="42.81947" lon="-0.3964">
        <ele>1614.190918</ele>
        <time>2013-06-13T08:20:50Z</time>
      </trkpt>
      <trkpt lat="42.8195" lon="-0.39626">
        <ele>1616.113525</ele>
        <time>2013-06-13T08:21:05Z</time>
      </trkpt>
      <trkpt lat="42.81952" lon="-0.39614">
        <ele>1619.478271</ele>
        <time>2013-06-13T08:21:19Z</time>
      </trkpt>
      <trkpt lat="42.81951" lon="-0.39604">
        <ele>1622.842773</ele>
        <time>2013-06-13T08:21:32Z</time>
      </trkpt>
      <trkpt lat="42.81954" lon="-0.39592">
        <ele>1623.323486</ele>
        <time>2013-06-13T08:21:47Z</time>
      </trkpt>
      <trkpt lat="42.81957" lon="-0.39586">
        <ele>1626.687988</ele>
        <time>2013-06-13T08:21:56Z</time>
      </trkpt>
      <trkpt lat="42.8196" lon="-0.39577">
        <ele>1626.207275</ele>
        <time>2013-06-13T08:22:11Z</time>
      </trkpt>
      <trkpt lat="42.81962" lon="-0.39563">
        <ele>1629.091309</ele>
        <time>2013-06-13T08:22:28Z</time>
      </trkpt>
      <trkpt lat="42.81961" lon="-0.39555">
        <ele>1631.975342</ele>
        <time>2013-06-13T08:22:50Z</time>
      </trkpt>
      <trkpt lat="42.81962" lon="-0.39539">
        <ele>1634.378662</ele>
        <time>2013-06-13T08:23:07Z</time>
      </trkpt>
      <trkpt lat="42.81965" lon="-0.39519">
        <ele>1635.820557</ele>
        <time>2013-06-13T08:23:24Z</time>
      </trkpt>
      <trkpt lat="42.81966" lon="-0.39511">
        <ele>1638.70459</ele>
        <time>2013-06-13T08:23:33Z</time>
      </trkpt>
      <trkpt lat="42.81958" lon="-0.39515">
        <ele>1639.185059</ele>
        <time>2013-06-13T08:23:48Z</time>
      </trkpt>
      <trkpt lat="42.8195" lon="-0.39523">
        <ele>1642.549805</ele>
        <time>2013-06-13T08:24:02Z</time>
      </trkpt>
      <trkpt lat="42.81941" lon="-0.39531">
        <ele>1644.472412</ele>
        <time>2013-06-13T08:24:17Z</time>
      </trkpt>
      <trkpt lat="42.81942" lon="-0.39519">
        <ele>1645.433838</ele>
        <time>2013-06-13T08:24:30Z</time>
      </trkpt>
      <trkpt lat="42.81938" lon="-0.39517">
        <ele>1648.317627</ele>
        <time>2013-06-13T08:24:41Z</time>
      </trkpt>
      <trkpt lat="42.81927" lon="-0.39528">
        <ele>1650.720947</ele>
        <time>2013-06-13T08:25:00Z</time>
      </trkpt>
      <trkpt lat="42.81916" lon="-0.39539">
        <ele>1653.124268</ele>
        <time>2013-06-13T08:25:18Z</time>
      </trkpt>
      <trkpt lat="42.81907" lon="-0.39545">
        <ele>1654.566162</ele>
        <time>2013-06-13T08:25:35Z</time>
      </trkpt>
      <trkpt lat="42.81901" lon="-0.39542">
        <ele>1656.969482</ele>
        <time>2013-06-13T08:25:51Z</time>
      </trkpt>
      <trkpt lat="42.81905" lon="-0.39528">
        <ele>1659.853271</ele>
        <time>2013-06-13T08:26:07Z</time>
      </trkpt>
      <trkpt lat="42.81905" lon="-0.39527">
        <ele>1659.853271</ele>
        <time>2013-06-13T08:26:08Z</time>
      </trkpt>
      <trkpt lat="42.81909" lon="-0.39513">
        <ele>1662.256836</ele>
        <time>2013-06-13T08:26:23Z</time>
      </trkpt>
      <trkpt lat="42.81911" lon="-0.39498">
        <ele>1664.660156</ele>
        <time>2013-06-13T08:26:39Z</time>
      </trkpt>
      <trkpt lat="42.81907" lon="-0.39496">
        <ele>1668.024658</ele>
        <time>2013-06-13T08:26:53Z</time>
      </trkpt>
      <trkpt lat="42.81898" lon="-0.39505">
        <ele>1669.466797</ele>
        <time>2013-06-13T08:27:09Z</time>
      </trkpt>
      <trkpt lat="42.81891" lon="-0.39511">
        <ele>1672.350586</ele>
        <time>2013-06-13T08:27:27Z</time>
      </trkpt>
      <trkpt lat="42.81889" lon="-0.39514">
        <ele>1672.831299</ele>
        <time>2013-06-13T08:27:50Z</time>
      </trkpt>
      <trkpt lat="42.8188" lon="-0.39521">
        <ele>1675.234375</ele>
        <time>2013-06-13T08:28:02Z</time>
      </trkpt>
      <trkpt lat="42.81877" lon="-0.39524">
        <ele>1676.196045</ele>
        <time>2013-06-13T08:28:06Z</time>
      </trkpt>
      <trkpt lat="42.81875" lon="-0.39526">
        <ele>1677.637939</ele>
        <time>2013-06-13T08:28:09Z</time>
      </trkpt>
      <trkpt lat="42.81875" lon="-0.39523">
        <ele>1677.637939</ele>
        <time>2013-06-13T08:28:29Z</time>
      </trkpt>
      <trkpt lat="42.81877" lon="-0.39515">
        <ele>1679.079834</ele>
        <time>2013-06-13T08:28:37Z</time>
      </trkpt>
      <trkpt lat="42.81881" lon="-0.39491">
        <ele>1681.963867</ele>
        <time>2013-06-13T08:28:55Z</time>
      </trkpt>
      <trkpt lat="42.81883" lon="-0.39476">
        <ele>1685.328369</ele>
        <time>2013-06-13T08:29:07Z</time>
      </trkpt>
      <trkpt lat="42.81883" lon="-0.39465">
        <ele>1688.212402</ele>
        <time>2013-06-13T08:29:16Z</time>
      </trkpt>
      <trkpt lat="42.81881" lon="-0.39455">
        <ele>1689.173584</ele>
        <time>2013-06-13T08:29:32Z</time>
      </trkpt>
      <trkpt lat="42.8188" lon="-0.39456">
        <ele>1691.096191</ele>
        <time>2013-06-13T08:30:24Z</time>
      </trkpt>
      <trkpt lat="42.81877" lon="-0.39457">
        <ele>1692.538574</ele>
        <time>2013-06-13T08:30:37Z</time>
      </trkpt>
      <trkpt lat="42.81877" lon="-0.39455">
        <ele>1692.538574</ele>
        <time>2013-06-13T08:30:39Z</time>
      </trkpt>
      <trkpt lat="42.81875" lon="-0.39451">
        <ele>1693.019043</ele>
        <time>2013-06-13T08:30:43Z</time>
      </trkpt>
      <trkpt lat="42.8187" lon="-0.39455">
        <ele>1695.903076</ele>
        <time>2013-06-13T08:30:56Z</time>
      </trkpt>
      <trkpt lat="42.81868" lon="-0.39462">
        <ele>1698.786865</ele>
        <time>2013-06-13T08:31:02Z</time>
      </trkpt>
      <trkpt lat="42.81866" lon="-0.39468">
        <ele>1700.709473</ele>
        <time>2013-06-13T08:31:08Z</time>
      </trkpt>
      <trkpt lat="42.8186" lon="-0.39471">
        <ele>1703.112793</ele>
        <time>2013-06-13T08:31:23Z</time>
      </trkpt>
      <trkpt lat="42.81861" lon="-0.3947">
        <ele>1703.112793</ele>
        <time>2013-06-13T08:31:24Z</time>
      </trkpt>
      <trkpt lat="42.81861" lon="-0.39459">
        <ele>1704.074219</ele>
        <time>2013-06-13T08:31:33Z</time>
      </trkpt>
      <trkpt lat="42.81857" lon="-0.39461">
        <ele>1706.958008</ele>
        <time>2013-06-13T08:31:41Z</time>
      </trkpt>
      <trkpt lat="42.81851" lon="-0.39465">
        <ele>1709.361572</ele>
        <time>2013-06-13T08:31:56Z</time>
      </trkpt>
      <trkpt lat="42.81851" lon="-0.39463">
        <ele>1708.880859</ele>
        <time>2013-06-13T08:31:58Z</time>
      </trkpt>
      <trkpt lat="42.81849" lon="-0.39447">
        <ele>1712.245361</ele>
        <time>2013-06-13T08:32:15Z</time>
      </trkpt>
      <trkpt lat="42.81846" lon="-0.39445">
        <ele>1712.245361</ele>
        <time>2013-06-13T08:32:20Z</time>
      </trkpt>
      <trkpt lat="42.81841" lon="-0.39448">
        <ele>1716.090576</ele>
        <time>2013-06-13T08:32:33Z</time>
      </trkpt>
      <trkpt lat="42.81841" lon="-0.39449">
        <ele>1716.090576</ele>
        <time>2013-06-13T08:32:34Z</time>
      </trkpt>
      <trkpt lat="42.8184" lon="-0.39455">
        <ele>1716.571289</ele>
        <time>2013-06-13T08:32:40Z</time>
      </trkpt>
      <trkpt lat="42.81836" lon="-0.39475">
        <ele>1717.532471</ele>
        <time>2013-06-13T08:32:58Z</time>
      </trkpt>
      <trkpt lat="42.81838" lon="-0.39487">
        <ele>1719.935791</ele>
        <time>2013-06-13T08:33:10Z</time>
      </trkpt>
      <trkpt lat="42.81839" lon="-0.39494">
        <ele>1720.897217</ele>
        <time>2013-06-13T08:33:17Z</time>
      </trkpt>
      <trkpt lat="42.81837" lon="-0.39501">
        <ele>1720.416504</ele>
        <time>2013-06-13T08:33:38Z</time>
      </trkpt>
      <trkpt lat="42.81838" lon="-0.39501">
        <ele>1721.377686</ele>
        <time>2013-06-13T08:34:29Z</time>
      </trkpt>
      <trkpt lat="42.81835" lon="-0.39505">
        <ele>1722.819824</ele>
        <time>2013-06-13T08:34:52Z</time>
      </trkpt>
      <trkpt lat="42.81828" lon="-0.39511">
        <ele>1723.300537</ele>
        <time>2013-06-13T08:35:08Z</time>
      </trkpt>
      <trkpt lat="42.81821" lon="-0.39519">
        <ele>1724.261963</ele>
        <time>2013-06-13T08:35:24Z</time>
      </trkpt>
      <trkpt lat="42.8182" lon="-0.39519">
        <ele>1724.742676</ele>
        <time>2013-06-13T08:35:46Z</time>
      </trkpt>
      <trkpt lat="42.8181" lon="-0.39528">
        <ele>1726.665283</ele>
        <time>2013-06-13T08:36:02Z</time>
      </trkpt>
      <trkpt lat="42.81801" lon="-0.39535">
        <ele>1728.587891</ele>
        <time>2013-06-13T08:36:19Z</time>
      </trkpt>
      <trkpt lat="42.81803" lon="-0.39531">
        <ele>1729.068359</ele>
        <time>2013-06-13T08:36:23Z</time>
      </trkpt>
      <trkpt lat="42.81807" lon="-0.39519">
        <ele>1730.991211</ele>
        <time>2013-06-13T08:36:33Z</time>
      </trkpt>
      <trkpt lat="42.81804" lon="-0.39518">
        <ele>1733.394287</ele>
        <time>2013-06-13T08:36:44Z</time>
      </trkpt>
      <trkpt lat="42.81793" lon="-0.39528">
        <ele>1734.355713</ele>
        <time>2013-06-13T08:36:59Z</time>
      </trkpt>
      <trkpt lat="42.81793" lon="-0.39529">
        <ele>1734.355713</ele>
        <time>2013-06-13T08:37:00Z</time>
      </trkpt>
      <trkpt lat="42.81787" lon="-0.39537">
        <ele>1737.720215</ele>
        <time>2013-06-13T08:37:10Z</time>
      </trkpt>
      <trkpt lat="42.81781" lon="-0.39544">
        <ele>1737.239502</ele>
        <time>2013-06-13T08:37:23Z</time>
      </trkpt>
      <trkpt lat="42.81777" lon="-0.39556">
        <ele>1740.604248</ele>
        <time>2013-06-13T08:37:35Z</time>
      </trkpt>
      <trkpt lat="42.81767" lon="-0.39572">
        <ele>1743.488281</ele>
        <time>2013-06-13T08:37:53Z</time>
      </trkpt>
      <trkpt lat="42.81762" lon="-0.39574">
        <ele>1745.410889</ele>
        <time>2013-06-13T08:38:06Z</time>
      </trkpt>
      <trkpt lat="42.81761" lon="-0.39563">
        <ele>1746.852783</ele>
        <time>2013-06-13T08:38:17Z</time>
      </trkpt>
      <trkpt lat="42.81761" lon="-0.39541">
        <ele>1749.736816</ele>
        <time>2013-06-13T08:38:33Z</time>
      </trkpt>
      <trkpt lat="42.8176" lon="-0.39533">
        <ele>1751.178711</ele>
        <time>2013-06-13T08:38:39Z</time>
      </trkpt>
      <trkpt lat="42.81758" lon="-0.39532">
        <ele>1752.139893</ele>
        <time>2013-06-13T08:38:43Z</time>
      </trkpt>
      <trkpt lat="42.81746" lon="-0.39544">
        <ele>1754.543213</ele>
        <time>2013-06-13T08:39:01Z</time>
      </trkpt>
      <trkpt lat="42.81734" lon="-0.39552">
        <ele>1757.42749</ele>
        <time>2013-06-13T08:39:17Z</time>
      </trkpt>
      <trkpt lat="42.81725" lon="-0.39555">
        <ele>1758.869385</ele>
        <time>2013-06-13T08:39:27Z</time>
      </trkpt>
      <trkpt lat="42.81713" lon="-0.39557">
        <ele>1760.311279</ele>
        <time>2013-06-13T08:39:44Z</time>
      </trkpt>
      <trkpt lat="42.81706" lon="-0.39564">
        <ele>1759.830566</ele>
        <time>2013-06-13T08:39:57Z</time>
      </trkpt>
      <trkpt lat="42.81702" lon="-0.39569">
        <ele>1759.830566</ele>
        <time>2013-06-13T08:40:07Z</time>
      </trkpt>
      <trkpt lat="42.81697" lon="-0.39575">
        <ele>1761.272705</ele>
        <time>2013-06-13T08:40:15Z</time>
      </trkpt>
      <trkpt lat="42.81685" lon="-0.39591">
        <ele>1764.637207</ele>
        <time>2013-06-13T08:40:33Z</time>
      </trkpt>
      <trkpt lat="42.81677" lon="-0.39603">
        <ele>1767.520996</ele>
        <time>2013-06-13T08:40:48Z</time>
      </trkpt>
      <trkpt lat="42.81677" lon="-0.39617">
        <ele>1769.924316</ele>
        <time>2013-06-13T08:41:02Z</time>
      </trkpt>
      <trkpt lat="42.81671" lon="-0.39625">
        <ele>1772.327881</ele>
        <time>2013-06-13T08:41:15Z</time>
      </trkpt>
      <trkpt lat="42.81662" lon="-0.39623">
        <ele>1775.21167</ele>
        <time>2013-06-13T08:41:31Z</time>
      </trkpt>
      <trkpt lat="42.81662" lon="-0.39618">
        <ele>1776.173096</ele>
        <time>2013-06-13T08:41:35Z</time>
      </trkpt>
      <trkpt lat="42.81657" lon="-0.3961">
        <ele>1780.018311</ele>
        <time>2013-06-13T08:41:48Z</time>
      </trkpt>
      <trkpt lat="42.81651" lon="-0.39616">
        <ele>1780.018311</ele>
        <time>2013-06-13T08:41:58Z</time>
      </trkpt>
      <trkpt lat="42.81648" lon="-0.3963">
        <ele>1781.940918</ele>
        <time>2013-06-13T08:42:17Z</time>
      </trkpt>
      <trkpt lat="42.81647" lon="-0.39631">
        <ele>1781.940918</ele>
        <time>2013-06-13T08:42:36Z</time>
      </trkpt>
      <trkpt lat="42.81645" lon="-0.39636">
        <ele>1780.979736</ele>
        <time>2013-06-13T08:42:59Z</time>
      </trkpt>
      <trkpt lat="42.81636" lon="-0.39637">
        <ele>1781.460205</ele>
        <time>2013-06-13T08:43:13Z</time>
      </trkpt>
      <trkpt lat="42.81625" lon="-0.39642">
        <ele>1782.9021</ele>
        <time>2013-06-13T08:43:31Z</time>
      </trkpt>
      <trkpt lat="42.81623" lon="-0.39645">
        <ele>1780.979736</ele>
        <time>2013-06-13T08:43:47Z</time>
      </trkpt>
      <trkpt lat="42.81617" lon="-0.39639">
        <ele>1780.499023</ele>
        <time>2013-06-13T08:44:18Z</time>
      </trkpt>
      <trkpt lat="42.81612" lon="-0.39636">
        <ele>1781.940918</ele>
        <time>2013-06-13T08:44:30Z</time>
      </trkpt>
      <trkpt lat="42.81605" lon="-0.39639">
        <ele>1781.460205</ele>
        <time>2013-06-13T08:44:42Z</time>
      </trkpt>
      <trkpt lat="42.81597" lon="-0.39648">
        <ele>1782.9021</ele>
        <time>2013-06-13T08:44:55Z</time>
      </trkpt>
      <trkpt lat="42.81592" lon="-0.39653">
        <ele>1782.421631</ele>
        <time>2013-06-13T08:45:08Z</time>
      </trkpt>
      <trkpt lat="42.81589" lon="-0.39657">
        <ele>1782.421631</ele>
        <time>2013-06-13T08:45:26Z</time>
      </trkpt>
      <trkpt lat="42.81583" lon="-0.3966">
        <ele>1783.863525</ele>
        <time>2013-06-13T08:45:39Z</time>
      </trkpt>
      <trkpt lat="42.81576" lon="-0.39662">
        <ele>1785.30542</ele>
        <time>2013-06-13T08:45:52Z</time>
      </trkpt>
      <trkpt lat="42.81575" lon="-0.39661">
        <ele>1784.824951</ele>
        <time>2013-06-13T08:45:54Z</time>
      </trkpt>
      <trkpt lat="42.81568" lon="-0.39669">
        <ele>1787.70874</ele>
        <time>2013-06-13T08:46:07Z</time>
      </trkpt>
      <trkpt lat="42.81557" lon="-0.39679">
        <ele>1788.189697</ele>
        <time>2013-06-13T08:46:25Z</time>
      </trkpt>
      <trkpt lat="42.81554" lon="-0.39678">
        <ele>1789.150879</ele>
        <time>2013-06-13T08:46:54Z</time>
      </trkpt>
      <trkpt lat="42.81541" lon="-0.39675">
        <ele>1790.112305</ele>
        <time>2013-06-13T08:47:08Z</time>
      </trkpt>
      <trkpt lat="42.81539" lon="-0.39673">
        <ele>1791.554199</ele>
        <time>2013-06-13T08:47:10Z</time>
      </trkpt>
      <trkpt lat="42.81529" lon="-0.39673">
        <ele>1788.67041</ele>
        <time>2013-06-13T08:47:27Z</time>
      </trkpt>
      <trkpt lat="42.81523" lon="-0.39674">
        <ele>1789.631592</ele>
        <time>2013-06-13T08:47:39Z</time>
      </trkpt>
      <trkpt lat="42.81515" lon="-0.39676">
        <ele>1791.073486</ele>
        <time>2013-06-13T08:48:07Z</time>
      </trkpt>
      <trkpt lat="42.8151" lon="-0.39681">
        <ele>1792.515625</ele>
        <time>2013-06-13T08:48:21Z</time>
      </trkpt>
      <trkpt lat="42.81505" lon="-0.39685">
        <ele>1792.034912</ele>
        <time>2013-06-13T08:48:37Z</time>
      </trkpt>
      <trkpt lat="42.81505" lon="-0.39688">
        <ele>1791.073486</ele>
        <time>2013-06-13T08:48:57Z</time>
      </trkpt>
      <trkpt lat="42.81494" lon="-0.39696">
        <ele>1791.554199</ele>
        <time>2013-06-13T08:49:25Z</time>
      </trkpt>
      <trkpt lat="42.81489" lon="-0.397">
        <ele>1791.554199</ele>
        <time>2013-06-13T08:49:32Z</time>
      </trkpt>
      <trkpt lat="42.81477" lon="-0.39705">
        <ele>1791.554199</ele>
        <time>2013-06-13T08:49:46Z</time>
      </trkpt>
      <trkpt lat="42.81455" lon="-0.39707">
        <ele>1792.515625</ele>
        <time>2013-06-13T08:50:09Z</time>
      </trkpt>
      <trkpt lat="42.81454" lon="-0.3971">
        <ele>1792.515625</ele>
        <time>2013-06-13T08:50:12Z</time>
      </trkpt>
      <trkpt lat="42.81448" lon="-0.39715">
        <ele>1792.515625</ele>
        <time>2013-06-13T08:50:20Z</time>
      </trkpt>
      <trkpt lat="42.81439" lon="-0.39723">
        <ele>1792.996094</ele>
        <time>2013-06-13T08:50:34Z</time>
      </trkpt>
      <trkpt lat="42.81428" lon="-0.39732">
        <ele>1793.476807</ele>
        <time>2013-06-13T08:50:51Z</time>
      </trkpt>
      <trkpt lat="42.8141" lon="-0.39748">
        <ele>1793.95752</ele>
        <time>2013-06-13T08:51:12Z</time>
      </trkpt>
      <trkpt lat="42.81409" lon="-0.39748">
        <ele>1794.437988</ele>
        <time>2013-06-13T08:51:13Z</time>
      </trkpt>
      <trkpt lat="42.81398" lon="-0.39752">
        <ele>1797.322021</ele>
        <time>2013-06-13T08:51:25Z</time>
      </trkpt>
      <trkpt lat="42.81383" lon="-0.39756">
        <ele>1798.763916</ele>
        <time>2013-06-13T08:51:43Z</time>
      </trkpt>
      <trkpt lat="42.81379" lon="-0.39759">
        <ele>1798.283203</ele>
        <time>2013-06-13T08:51:57Z</time>
      </trkpt>
      <trkpt lat="42.81382" lon="-0.39759">
        <ele>1797.322021</ele>
        <time>2013-06-13T08:52:09Z</time>
      </trkpt>
      <trkpt lat="42.81382" lon="-0.39759">
        <ele>1798.763916</ele>
        <time>2013-06-13T08:52:31Z</time>
      </trkpt>
      <trkpt lat="42.81372" lon="-0.39761">
        <ele>1798.763916</ele>
        <time>2013-06-13T08:52:52Z</time>
      </trkpt>
      <trkpt lat="42.81354" lon="-0.39766">
        <ele>1799.725342</ele>
        <time>2013-06-13T08:53:09Z</time>
      </trkpt>
      <trkpt lat="42.81345" lon="-0.39767">
        <ele>1800.206055</ele>
        <time>2013-06-13T08:53:25Z</time>
      </trkpt>
      <trkpt lat="42.8134" lon="-0.39768">
        <ele>1800.686523</ele>
        <time>2013-06-13T08:53:30Z</time>
      </trkpt>
      <trkpt lat="42.81324" lon="-0.39764">
        <ele>1802.128418</ele>
        <time>2013-06-13T08:53:47Z</time>
      </trkpt>
      <trkpt lat="42.81308" lon="-0.39763">
        <ele>1802.609131</ele>
        <time>2013-06-13T08:54:02Z</time>
      </trkpt>
      <trkpt lat="42.8129" lon="-0.39765">
        <ele>1803.570557</ele>
        <time>2013-06-13T08:54:22Z</time>
      </trkpt>
      <trkpt lat="42.81285" lon="-0.39763">
        <ele>1804.531982</ele>
        <time>2013-06-13T08:54:28Z</time>
      </trkpt>
      <trkpt lat="42.81283" lon="-0.39762">
        <ele>1805.973877</ele>
        <time>2013-06-13T08:54:30Z</time>
      </trkpt>
      <trkpt lat="42.81275" lon="-0.39763">
        <ele>1806.935303</ele>
        <time>2013-06-13T08:54:38Z</time>
      </trkpt>
      <trkpt lat="42.81253" lon="-0.39764">
        <ele>1808.377197</ele>
        <time>2013-06-13T08:54:57Z</time>
      </trkpt>
      <trkpt lat="42.81246" lon="-0.39763">
        <ele>1808.85791</ele>
        <time>2013-06-13T08:55:04Z</time>
      </trkpt>
      <trkpt lat="42.81241" lon="-0.39763">
        <ele>1808.85791</ele>
        <time>2013-06-13T08:55:09Z</time>
      </trkpt>
      <trkpt lat="42.81226" lon="-0.39766">
        <ele>1809.338623</ele>
        <time>2013-06-13T08:55:27Z</time>
      </trkpt>
      <trkpt lat="42.81208" lon="-0.39768">
        <ele>1810.780518</ele>
        <time>2013-06-13T08:55:45Z</time>
      </trkpt>
      <trkpt lat="42.812" lon="-0.39772">
        <ele>1814.14502</ele>
        <time>2013-06-13T08:55:55Z</time>
      </trkpt>
      <trkpt lat="42.81189" lon="-0.39777">
        <ele>1815.587158</ele>
        <time>2013-06-13T08:56:09Z</time>
      </trkpt>
      <trkpt lat="42.8118" lon="-0.39776">
        <ele>1815.587158</ele>
        <time>2013-06-13T08:56:26Z</time>
      </trkpt>
      <trkpt lat="42.81174" lon="-0.39774">
        <ele>1815.587158</ele>
        <time>2013-06-13T08:56:34Z</time>
      </trkpt>
      <trkpt lat="42.81164" lon="-0.39764">
        <ele>1818.470947</ele>
        <time>2013-06-13T08:56:52Z</time>
      </trkpt>
      <trkpt lat="42.81153" lon="-0.3976">
        <ele>1821.835693</ele>
        <time>2013-06-13T08:57:06Z</time>
      </trkpt>
      <trkpt lat="42.81142" lon="-0.39755">
        <ele>1822.797119</ele>
        <time>2013-06-13T08:57:21Z</time>
      </trkpt>
      <trkpt lat="42.8114" lon="-0.39755">
        <ele>1822.797119</ele>
        <time>2013-06-13T08:57:23Z</time>
      </trkpt>
      <trkpt lat="42.81133" lon="-0.39755">
        <ele>1823.277832</ele>
        <time>2013-06-13T08:57:31Z</time>
      </trkpt>
      <trkpt lat="42.81124" lon="-0.39757">
        <ele>1823.758301</ele>
        <time>2013-06-13T08:57:48Z</time>
      </trkpt>
      <trkpt lat="42.81112" lon="-0.3976">
        <ele>1821.835693</ele>
        <time>2013-06-13T08:58:05Z</time>
      </trkpt>
      <trkpt lat="42.81102" lon="-0.39754">
        <ele>1824.239014</ele>
        <time>2013-06-13T08:58:22Z</time>
      </trkpt>
      <trkpt lat="42.81096" lon="-0.39749">
        <ele>1825.680908</ele>
        <time>2013-06-13T08:58:37Z</time>
      </trkpt>
      <trkpt lat="42.81091" lon="-0.39744">
        <ele>1827.123047</ele>
        <time>2013-06-13T08:58:52Z</time>
      </trkpt>
      <trkpt lat="42.81083" lon="-0.39739">
        <ele>1830.006836</ele>
        <time>2013-06-13T08:59:09Z</time>
      </trkpt>
      <trkpt lat="42.81074" lon="-0.3974">
        <ele>1828.564941</ele>
        <time>2013-06-13T08:59:23Z</time>
      </trkpt>
      <trkpt lat="42.81068" lon="-0.39741">
        <ele>1829.04541</ele>
        <time>2013-06-13T08:59:38Z</time>
      </trkpt>
      <trkpt lat="42.81055" lon="-0.39741">
        <ele>1830.968262</ele>
        <time>2013-06-13T08:59:55Z</time>
      </trkpt>
      <trkpt lat="42.81042" lon="-0.39741">
        <ele>1832.890625</ele>
        <time>2013-06-13T09:00:10Z</time>
      </trkpt>
      <trkpt lat="42.81026" lon="-0.39743">
        <ele>1835.293945</ele>
        <time>2013-06-13T09:00:29Z</time>
      </trkpt>
      <trkpt lat="42.81019" lon="-0.39745">
        <ele>1836.255615</ele>
        <time>2013-06-13T09:00:39Z</time>
      </trkpt>
      <trkpt lat="42.81005" lon="-0.39744">
        <ele>1837.69751</ele>
        <time>2013-06-13T09:00:56Z</time>
      </trkpt>
      <trkpt lat="42.80991" lon="-0.39744">
        <ele>1838.178223</ele>
        <time>2013-06-13T09:01:13Z</time>
      </trkpt>
      <trkpt lat="42.80979" lon="-0.39741">
        <ele>1835.774658</ele>
        <time>2013-06-13T09:01:29Z</time>
      </trkpt>
      <trkpt lat="42.80964" lon="-0.39744">
        <ele>1836.255615</ele>
        <time>2013-06-13T09:01:45Z</time>
      </trkpt>
      <trkpt lat="42.80949" lon="-0.39742">
        <ele>1835.774658</ele>
        <time>2013-06-13T09:02:02Z</time>
      </trkpt>
      <trkpt lat="42.80938" lon="-0.39738">
        <ele>1836.736084</ele>
        <time>2013-06-13T09:02:19Z</time>
      </trkpt>
      <trkpt lat="42.80924" lon="-0.39734">
        <ele>1836.255615</ele>
        <time>2013-06-13T09:02:38Z</time>
      </trkpt>
      <trkpt lat="42.80912" lon="-0.39726">
        <ele>1837.69751</ele>
        <time>2013-06-13T09:02:58Z</time>
      </trkpt>
      <trkpt lat="42.80901" lon="-0.39717">
        <ele>1840.581299</ele>
        <time>2013-06-13T09:03:17Z</time>
      </trkpt>
      <trkpt lat="42.80894" lon="-0.39713">
        <ele>1841.062012</ele>
        <time>2013-06-13T09:03:33Z</time>
      </trkpt>
      <trkpt lat="42.8089" lon="-0.39711">
        <ele>1841.062012</ele>
        <time>2013-06-13T09:03:52Z</time>
      </trkpt>
      <trkpt lat="42.80878" lon="-0.39705">
        <ele>1841.542725</ele>
        <time>2013-06-13T09:04:11Z</time>
      </trkpt>
      <trkpt lat="42.80866" lon="-0.39701">
        <ele>1841.062012</ele>
        <time>2013-06-13T09:04:30Z</time>
      </trkpt>
      <trkpt lat="42.80853" lon="-0.39699">
        <ele>1840.581299</ele>
        <time>2013-06-13T09:04:47Z</time>
      </trkpt>
      <trkpt lat="42.80844" lon="-0.39706">
        <ele>1839.139404</ele>
        <time>2013-06-13T09:05:01Z</time>
      </trkpt>
      <trkpt lat="42.80829" lon="-0.39705">
        <ele>1837.69751</ele>
        <time>2013-06-13T09:05:18Z</time>
      </trkpt>
      <trkpt lat="42.80823" lon="-0.39704">
        <ele>1838.658936</ele>
        <time>2013-06-13T09:05:24Z</time>
      </trkpt>
      <trkpt lat="42.80805" lon="-0.3971">
        <ele>1839.139404</ele>
        <time>2013-06-13T09:05:44Z</time>
      </trkpt>
      <trkpt lat="42.80792" lon="-0.39711">
        <ele>1839.139404</ele>
        <time>2013-06-13T09:05:59Z</time>
      </trkpt>
      <trkpt lat="42.80771" lon="-0.39715">
        <ele>1838.178223</ele>
        <time>2013-06-13T09:06:20Z</time>
      </trkpt>
      <trkpt lat="42.80764" lon="-0.39718">
        <ele>1837.69751</ele>
        <time>2013-06-13T09:06:37Z</time>
      </trkpt>
      <trkpt lat="42.80754" lon="-0.39718">
        <ele>1839.620117</ele>
        <time>2013-06-13T09:06:52Z</time>
      </trkpt>
      <trkpt lat="42.80737" lon="-0.39719">
        <ele>1840.581299</ele>
        <time>2013-06-13T09:07:08Z</time>
      </trkpt>
      <trkpt lat="42.80717" lon="-0.39721">
        <ele>1840.581299</ele>
        <time>2013-06-13T09:07:28Z</time>
      </trkpt>
      <trkpt lat="42.80705" lon="-0.3972">
        <ele>1839.139404</ele>
        <time>2013-06-13T09:07:44Z</time>
      </trkpt>
      <trkpt lat="42.80695" lon="-0.39717">
        <ele>1840.581299</ele>
        <time>2013-06-13T09:07:57Z</time>
      </trkpt>
      <trkpt lat="42.80682" lon="-0.39713">
        <ele>1840.10083</ele>
        <time>2013-06-13T09:08:16Z</time>
      </trkpt>
      <trkpt lat="42.80673" lon="-0.39712">
        <ele>1839.620117</ele>
        <time>2013-06-13T09:08:32Z</time>
      </trkpt>
      <trkpt lat="42.80672" lon="-0.39713">
        <ele>1839.139404</ele>
        <time>2013-06-13T09:08:57Z</time>
      </trkpt>
      <trkpt lat="42.80659" lon="-0.39713">
        <ele>1840.10083</ele>
        <time>2013-06-13T09:09:15Z</time>
      </trkpt>
      <trkpt lat="42.80654" lon="-0.39715">
        <ele>1839.139404</ele>
        <time>2013-06-13T09:09:22Z</time>
      </trkpt>
      <trkpt lat="42.8065" lon="-0.39716">
        <ele>1839.620117</ele>
        <time>2013-06-13T09:09:40Z</time>
      </trkpt>
      <trkpt lat="42.80649" lon="-0.39714">
        <ele>1839.139404</ele>
        <time>2013-06-13T09:10:13Z</time>
      </trkpt>
      <trkpt lat="42.80643" lon="-0.39724">
        <ele>1839.620117</ele>
        <time>2013-06-13T09:10:40Z</time>
      </trkpt>
      <trkpt lat="42.80637" lon="-0.39727">
        <ele>1839.620117</ele>
        <time>2013-06-13T09:11:00Z</time>
      </trkpt>
      <trkpt lat="42.80628" lon="-0.39732">
        <ele>1840.10083</ele>
        <time>2013-06-13T09:11:21Z</time>
      </trkpt>
      <trkpt lat="42.80618" lon="-0.39747">
        <ele>1839.620117</ele>
        <time>2013-06-13T09:11:43Z</time>
      </trkpt>
      <trkpt lat="42.80612" lon="-0.39756">
        <ele>1838.178223</ele>
        <time>2013-06-13T09:11:57Z</time>
      </trkpt>
      <trkpt lat="42.80603" lon="-0.39768">
        <ele>1838.658936</ele>
        <time>2013-06-13T09:12:13Z</time>
      </trkpt>
      <trkpt lat="42.80589" lon="-0.39774">
        <ele>1839.620117</ele>
        <time>2013-06-13T09:12:30Z</time>
      </trkpt>
      <trkpt lat="42.80579" lon="-0.39779">
        <ele>1839.139404</ele>
        <time>2013-06-13T09:12:46Z</time>
      </trkpt>
      <trkpt lat="42.80571" lon="-0.39782">
        <ele>1839.620117</ele>
        <time>2013-06-13T09:12:59Z</time>
      </trkpt>
      <trkpt lat="42.80568" lon="-0.3978">
        <ele>1840.581299</ele>
        <time>2013-06-13T09:13:02Z</time>
      </trkpt>
      <trkpt lat="42.80563" lon="-0.39784">
        <ele>1840.10083</ele>
        <time>2013-06-13T09:13:17Z</time>
      </trkpt>
      <trkpt lat="42.80562" lon="-0.39787">
        <ele>1839.139404</ele>
        <time>2013-06-13T09:13:33Z</time>
      </trkpt>
      <trkpt lat="42.8056" lon="-0.39791">
        <ele>1841.062012</ele>
        <time>2013-06-13T09:13:36Z</time>
      </trkpt>
      <trkpt lat="42.8056" lon="-0.39791">
        <ele>1840.10083</ele>
        <time>2013-06-13T09:13:37Z</time>
      </trkpt>
      <trkpt lat="42.80557" lon="-0.39793">
        <ele>1840.10083</ele>
        <time>2013-06-13T09:13:40Z</time>
      </trkpt>
      <trkpt lat="42.80555" lon="-0.39795">
        <ele>1840.581299</ele>
        <time>2013-06-13T09:13:42Z</time>
      </trkpt>
      <trkpt lat="42.80555" lon="-0.39806">
        <ele>1842.984619</ele>
        <time>2013-06-13T09:13:58Z</time>
      </trkpt>
      <trkpt lat="42.80558" lon="-0.39806">
        <ele>1842.984619</ele>
        <time>2013-06-13T09:14:12Z</time>
      </trkpt>
      <trkpt lat="42.80552" lon="-0.39807">
        <ele>1843.465332</ele>
        <time>2013-06-13T09:14:41Z</time>
      </trkpt>
      <trkpt lat="42.8054" lon="-0.39808">
        <ele>1844.426514</ele>
        <time>2013-06-13T09:15:00Z</time>
      </trkpt>
      <trkpt lat="42.80537" lon="-0.39803">
        <ele>1843.946045</ele>
        <time>2013-06-13T09:15:17Z</time>
      </trkpt>
      <trkpt lat="42.80534" lon="-0.39791">
        <ele>1842.984619</ele>
        <time>2013-06-13T09:15:35Z</time>
      </trkpt>
      <trkpt lat="42.80524" lon="-0.39785">
        <ele>1844.426514</ele>
        <time>2013-06-13T09:15:47Z</time>
      </trkpt>
      <trkpt lat="42.80519" lon="-0.39782">
        <ele>1843.946045</ele>
        <time>2013-06-13T09:16:01Z</time>
      </trkpt>
      <trkpt lat="42.80519" lon="-0.39781">
        <ele>1842.50415</ele>
        <time>2013-06-13T09:16:02Z</time>
      </trkpt>
      <trkpt lat="42.80516" lon="-0.39777">
        <ele>1843.465332</ele>
        <time>2013-06-13T09:16:07Z</time>
      </trkpt>
      <trkpt lat="42.8051" lon="-0.39777">
        <ele>1843.465332</ele>
        <time>2013-06-13T09:16:13Z</time>
      </trkpt>
      <trkpt lat="42.80506" lon="-0.39776">
        <ele>1844.426514</ele>
        <time>2013-06-13T09:16:17Z</time>
      </trkpt>
      <trkpt lat="42.80492" lon="-0.39774">
        <ele>1844.426514</ele>
        <time>2013-06-13T09:16:34Z</time>
      </trkpt>
      <trkpt lat="42.80477" lon="-0.39769">
        <ele>1844.907227</ele>
        <time>2013-06-13T09:16:52Z</time>
      </trkpt>
      <trkpt lat="42.80474" lon="-0.3977">
        <ele>1845.868652</ele>
        <time>2013-06-13T09:17:12Z</time>
      </trkpt>
      <trkpt lat="42.80464" lon="-0.3977">
        <ele>1846.349365</ele>
        <time>2013-06-13T09:17:25Z</time>
      </trkpt>
      <trkpt lat="42.80458" lon="-0.39771">
        <ele>1847.310547</ele>
        <time>2013-06-13T09:17:31Z</time>
      </trkpt>
      <trkpt lat="42.80453" lon="-0.39771">
        <ele>1847.310547</ele>
        <time>2013-06-13T09:17:36Z</time>
      </trkpt>
      <trkpt lat="42.80432" lon="-0.39772">
        <ele>1848.752441</ele>
        <time>2013-06-13T09:17:57Z</time>
      </trkpt>
      <trkpt lat="42.80429" lon="-0.39772">
        <ele>1848.752441</ele>
        <time>2013-06-13T09:18:11Z</time>
      </trkpt>
      <trkpt lat="42.80426" lon="-0.39773">
        <ele>1850.19458</ele>
        <time>2013-06-13T09:18:33Z</time>
      </trkpt>
      <trkpt lat="42.80401" lon="-0.39782">
        <ele>1850.19458</ele>
        <time>2013-06-13T09:18:57Z</time>
      </trkpt>
      <trkpt lat="42.80379" lon="-0.39789">
        <ele>1849.713867</ele>
        <time>2013-06-13T09:19:17Z</time>
      </trkpt>
      <trkpt lat="42.80358" lon="-0.39798">
        <ele>1850.19458</ele>
        <time>2013-06-13T09:19:37Z</time>
      </trkpt>
      <trkpt lat="42.80334" lon="-0.39805">
        <ele>1851.636475</ele>
        <time>2013-06-13T09:20:00Z</time>
      </trkpt>
      <trkpt lat="42.80318" lon="-0.39808">
        <ele>1851.155762</ele>
        <time>2013-06-13T09:20:17Z</time>
      </trkpt>
      <trkpt lat="42.80315" lon="-0.39793">
        <ele>1853.078613</ele>
        <time>2013-06-13T09:20:34Z</time>
      </trkpt>
      <trkpt lat="42.80312" lon="-0.39791">
        <ele>1855.962402</ele>
        <time>2013-06-13T09:20:41Z</time>
      </trkpt>
      <trkpt lat="42.80307" lon="-0.39794">
        <ele>1856.923828</ele>
        <time>2013-06-13T09:20:58Z</time>
      </trkpt>
      <trkpt lat="42.80306" lon="-0.39797">
        <ele>1857.404541</ele>
        <time>2013-06-13T09:21:21Z</time>
      </trkpt>
      <trkpt lat="42.80305" lon="-0.39797">
        <ele>1857.885254</ele>
        <time>2013-06-13T09:21:54Z</time>
      </trkpt>
      <trkpt lat="42.80298" lon="-0.39802">
        <ele>1856.923828</ele>
        <time>2013-06-13T09:23:27Z</time>
      </trkpt>
      <trkpt lat="42.8029" lon="-0.39808">
        <ele>1853.559326</ele>
        <time>2013-06-13T09:23:41Z</time>
      </trkpt>
      <trkpt lat="42.8028" lon="-0.39816">
        <ele>1852.117188</ele>
        <time>2013-06-13T09:23:57Z</time>
      </trkpt>
      <trkpt lat="42.8028" lon="-0.39823">
        <ele>1850.19458</ele>
        <time>2013-06-13T09:24:11Z</time>
      </trkpt>
      <trkpt lat="42.80279" lon="-0.39824">
        <ele>1851.155762</ele>
        <time>2013-06-13T09:24:27Z</time>
      </trkpt>
      <trkpt lat="42.80277" lon="-0.39824">
        <ele>1851.155762</ele>
        <time>2013-06-13T09:24:49Z</time>
      </trkpt>
      <trkpt lat="42.80277" lon="-0.39822">
        <ele>1851.155762</ele>
        <time>2013-06-13T09:25:10Z</time>
      </trkpt>
      <trkpt lat="42.80272" lon="-0.39811">
        <ele>1851.636475</ele>
        <time>2013-06-13T09:25:29Z</time>
      </trkpt>
      <trkpt lat="42.80271" lon="-0.39809">
        <ele>1851.155762</ele>
        <time>2013-06-13T09:25:47Z</time>
      </trkpt>
      <trkpt lat="42.80268" lon="-0.39807">
        <ele>1853.078613</ele>
        <time>2013-06-13T09:26:12Z</time>
      </trkpt>
      <trkpt lat="42.80257" lon="-0.39809">
        <ele>1852.117188</ele>
        <time>2013-06-13T09:26:29Z</time>
      </trkpt>
      <trkpt lat="42.80243" lon="-0.39814">
        <ele>1850.675049</ele>
        <time>2013-06-13T09:26:49Z</time>
      </trkpt>
      <trkpt lat="42.80232" lon="-0.39826">
        <ele>1850.19458</ele>
        <time>2013-06-13T09:27:07Z</time>
      </trkpt>
      <trkpt lat="42.80228" lon="-0.39829">
        <ele>1850.675049</ele>
        <time>2013-06-13T09:27:12Z</time>
      </trkpt>
      <trkpt lat="42.80208" lon="-0.39839">
        <ele>1850.19458</ele>
        <time>2013-06-13T09:27:34Z</time>
      </trkpt>
      <trkpt lat="42.80192" lon="-0.39848">
        <ele>1850.675049</ele>
        <time>2013-06-13T09:27:53Z</time>
      </trkpt>
      <trkpt lat="42.80176" lon="-0.39852">
        <ele>1850.19458</ele>
        <time>2013-06-13T09:28:12Z</time>
      </trkpt>
      <trkpt lat="42.80161" lon="-0.39856">
        <ele>1850.19458</ele>
        <time>2013-06-13T09:28:31Z</time>
      </trkpt>
      <trkpt lat="42.8016" lon="-0.39855">
        <ele>1849.713867</ele>
        <time>2013-06-13T09:28:32Z</time>
      </trkpt>
      <trkpt lat="42.80142" lon="-0.39859">
        <ele>1849.713867</ele>
        <time>2013-06-13T09:28:53Z</time>
      </trkpt>
      <trkpt lat="42.80137" lon="-0.39862">
        <ele>1850.675049</ele>
        <time>2013-06-13T09:29:12Z</time>
      </trkpt>
      <trkpt lat="42.80137" lon="-0.39863">
        <ele>1850.675049</ele>
        <time>2013-06-13T09:29:44Z</time>
      </trkpt>
      <trkpt lat="42.80138" lon="-0.39864">
        <ele>1851.155762</ele>
        <time>2013-06-13T09:30:34Z</time>
      </trkpt>
      <trkpt lat="42.8014" lon="-0.39863">
        <ele>1850.675049</ele>
        <time>2013-06-13T09:30:56Z</time>
      </trkpt>
      <trkpt lat="42.80141" lon="-0.39866">
        <ele>1850.675049</ele>
        <time>2013-06-13T09:31:31Z</time>
      </trkpt>
      <trkpt lat="42.80141" lon="-0.39864">
        <ele>1850.19458</ele>
        <time>2013-06-13T09:32:26Z</time>
      </trkpt>
      <trkpt lat="42.80142" lon="-0.39864">
        <ele>1847.310547</ele>
        <time>2013-06-13T09:33:26Z</time>
      </trkpt>
      <trkpt lat="42.80142" lon="-0.39865">
        <ele>1851.155762</ele>
        <time>2013-06-13T09:33:27Z</time>
      </trkpt>
      <trkpt lat="42.80138" lon="-0.39856">
        <ele>1848.752441</ele>
        <time>2013-06-13T09:33:53Z</time>
      </trkpt>
      <trkpt lat="42.80139" lon="-0.39858">
        <ele>1848.752441</ele>
        <time>2013-06-13T09:35:26Z</time>
      </trkpt>
      <trkpt lat="42.80146" lon="-0.39858">
        <ele>1851.155762</ele>
        <time>2013-06-13T09:36:05Z</time>
      </trkpt>
      <trkpt lat="42.80166" lon="-0.39853">
        <ele>1850.19458</ele>
        <time>2013-06-13T09:36:27Z</time>
      </trkpt>
      <trkpt lat="42.80183" lon="-0.39849">
        <ele>1851.155762</ele>
        <time>2013-06-13T09:36:45Z</time>
      </trkpt>
      <trkpt lat="42.80201" lon="-0.39841">
        <ele>1851.636475</ele>
        <time>2013-06-13T09:37:04Z</time>
      </trkpt>
      <trkpt lat="42.80217" lon="-0.39834">
        <ele>1852.117188</ele>
        <time>2013-06-13T09:37:21Z</time>
      </trkpt>
      <trkpt lat="42.80227" lon="-0.39828">
        <ele>1852.117188</ele>
        <time>2013-06-13T09:37:32Z</time>
      </trkpt>
      <trkpt lat="42.80231" lon="-0.39826">
        <ele>1851.636475</ele>
        <time>2013-06-13T09:37:36Z</time>
      </trkpt>
      <trkpt lat="42.80238" lon="-0.39818">
        <ele>1850.675049</ele>
        <time>2013-06-13T09:37:53Z</time>
      </trkpt>
      <trkpt lat="42.80243" lon="-0.39815">
        <ele>1850.19458</ele>
        <time>2013-06-13T09:38:13Z</time>
      </trkpt>
      <trkpt lat="42.80254" lon="-0.39813">
        <ele>1850.19458</ele>
        <time>2013-06-13T09:38:30Z</time>
      </trkpt>
      <trkpt lat="42.80262" lon="-0.39813">
        <ele>1851.636475</ele>
        <time>2013-06-13T09:38:46Z</time>
      </trkpt>
      <trkpt lat="42.80272" lon="-0.3981">
        <ele>1852.117188</ele>
        <time>2013-06-13T09:39:04Z</time>
      </trkpt>
      <trkpt lat="42.80279" lon="-0.39816">
        <ele>1853.078613</ele>
        <time>2013-06-13T09:39:17Z</time>
      </trkpt>
      <trkpt lat="42.80282" lon="-0.39818">
        <ele>1854.520508</ele>
        <time>2013-06-13T09:40:04Z</time>
      </trkpt>
      <trkpt lat="42.80289" lon="-0.39816">
        <ele>1853.559326</ele>
        <time>2013-06-13T09:40:26Z</time>
      </trkpt>
      <trkpt lat="42.80299" lon="-0.39813">
        <ele>1853.078613</ele>
        <time>2013-06-13T09:40:43Z</time>
      </trkpt>
      <trkpt lat="42.80303" lon="-0.39812">
        <ele>1854.520508</ele>
        <time>2013-06-13T09:40:59Z</time>
      </trkpt>
      <trkpt lat="42.80313" lon="-0.39812">
        <ele>1852.5979</ele>
        <time>2013-06-13T09:41:17Z</time>
      </trkpt>
      <trkpt lat="42.80329" lon="-0.39809">
        <ele>1853.559326</ele>
        <time>2013-06-13T09:41:34Z</time>
      </trkpt>
      <trkpt lat="42.80351" lon="-0.39806">
        <ele>1852.5979</ele>
        <time>2013-06-13T09:41:56Z</time>
      </trkpt>
      <trkpt lat="42.80373" lon="-0.39803">
        <ele>1853.078613</ele>
        <time>2013-06-13T09:42:17Z</time>
      </trkpt>
      <trkpt lat="42.80396" lon="-0.39799">
        <ele>1853.559326</ele>
        <time>2013-06-13T09:42:39Z</time>
      </trkpt>
      <trkpt lat="42.80417" lon="-0.39795">
        <ele>1853.559326</ele>
        <time>2013-06-13T09:42:59Z</time>
      </trkpt>
      <trkpt lat="42.80427" lon="-0.39792">
        <ele>1852.5979</ele>
        <time>2013-06-13T09:43:09Z</time>
      </trkpt>
      <trkpt lat="42.80439" lon="-0.39788">
        <ele>1852.117188</ele>
        <time>2013-06-13T09:43:21Z</time>
      </trkpt>
      <trkpt lat="42.80455" lon="-0.39786">
        <ele>1850.675049</ele>
        <time>2013-06-13T09:43:36Z</time>
      </trkpt>
      <trkpt lat="42.8047" lon="-0.3977">
        <ele>1850.19458</ele>
        <time>2013-06-13T09:43:54Z</time>
      </trkpt>
      <trkpt lat="42.80479" lon="-0.39768">
        <ele>1849.713867</ele>
        <time>2013-06-13T09:44:06Z</time>
      </trkpt>
      <trkpt lat="42.80506" lon="-0.39775">
        <ele>1849.233154</ele>
        <time>2013-06-13T09:44:30Z</time>
      </trkpt>
      <trkpt lat="42.80518" lon="-0.39776">
        <ele>1847.79126</ele>
        <time>2013-06-13T09:44:41Z</time>
      </trkpt>
      <trkpt lat="42.80537" lon="-0.39774">
        <ele>1847.79126</ele>
        <time>2013-06-13T09:44:58Z</time>
      </trkpt>
      <trkpt lat="42.80543" lon="-0.39773">
        <ele>1847.310547</ele>
        <time>2013-06-13T09:45:04Z</time>
      </trkpt>
      <trkpt lat="42.80547" lon="-0.39774">
        <ele>1847.310547</ele>
        <time>2013-06-13T09:45:08Z</time>
      </trkpt>
      <trkpt lat="42.80562" lon="-0.3978">
        <ele>1847.310547</ele>
        <time>2013-06-13T09:45:27Z</time>
      </trkpt>
      <trkpt lat="42.80571" lon="-0.39781">
        <ele>1847.310547</ele>
        <time>2013-06-13T09:45:40Z</time>
      </trkpt>
      <trkpt lat="42.80581" lon="-0.39778">
        <ele>1846.349365</ele>
        <time>2013-06-13T09:45:56Z</time>
      </trkpt>
      <trkpt lat="42.80591" lon="-0.39773">
        <ele>1845.387939</ele>
        <time>2013-06-13T09:46:12Z</time>
      </trkpt>
      <trkpt lat="42.80596" lon="-0.3977">
        <ele>1845.868652</ele>
        <time>2013-06-13T09:46:19Z</time>
      </trkpt>
      <trkpt lat="42.80606" lon="-0.39764">
        <ele>1845.387939</ele>
        <time>2013-06-13T09:46:30Z</time>
      </trkpt>
      <trkpt lat="42.80615" lon="-0.39749">
        <ele>1846.829834</ele>
        <time>2013-06-13T09:46:48Z</time>
      </trkpt>
      <trkpt lat="42.80627" lon="-0.39735">
        <ele>1846.829834</ele>
        <time>2013-06-13T09:47:08Z</time>
      </trkpt>
      <trkpt lat="42.80641" lon="-0.39726">
        <ele>1845.387939</ele>
        <time>2013-06-13T09:47:26Z</time>
      </trkpt>
      <trkpt lat="42.80656" lon="-0.39718">
        <ele>1845.387939</ele>
        <time>2013-06-13T09:47:46Z</time>
      </trkpt>
      <trkpt lat="42.80673" lon="-0.3972">
        <ele>1845.868652</ele>
        <time>2013-06-13T09:48:06Z</time>
      </trkpt>
      <trkpt lat="42.8069" lon="-0.39723">
        <ele>1845.387939</ele>
        <time>2013-06-13T09:48:25Z</time>
      </trkpt>
      <trkpt lat="42.80709" lon="-0.39732">
        <ele>1844.426514</ele>
        <time>2013-06-13T09:48:47Z</time>
      </trkpt>
      <trkpt lat="42.80725" lon="-0.3974">
        <ele>1844.426514</ele>
        <time>2013-06-13T09:49:07Z</time>
      </trkpt>
      <trkpt lat="42.8073" lon="-0.3974">
        <ele>1844.907227</ele>
        <time>2013-06-13T09:49:13Z</time>
      </trkpt>
      <trkpt lat="42.80735" lon="-0.39739">
        <ele>1843.946045</ele>
        <time>2013-06-13T09:49:18Z</time>
      </trkpt>
      <trkpt lat="42.80739" lon="-0.39739">
        <ele>1843.946045</ele>
        <time>2013-06-13T09:49:22Z</time>
      </trkpt>
      <trkpt lat="42.80744" lon="-0.39737">
        <ele>1842.50415</ele>
        <time>2013-06-13T09:49:26Z</time>
      </trkpt>
      <trkpt lat="42.80753" lon="-0.39732">
        <ele>1843.946045</ele>
        <time>2013-06-13T09:49:35Z</time>
      </trkpt>
      <trkpt lat="42.8076" lon="-0.39729">
        <ele>1844.426514</ele>
        <time>2013-06-13T09:49:42Z</time>
      </trkpt>
      <trkpt lat="42.80764" lon="-0.39724">
        <ele>1844.907227</ele>
        <time>2013-06-13T09:49:47Z</time>
      </trkpt>
      <trkpt lat="42.80782" lon="-0.39725">
        <ele>1843.465332</ele>
        <time>2013-06-13T09:50:05Z</time>
      </trkpt>
      <trkpt lat="42.808" lon="-0.39724">
        <ele>1841.542725</ele>
        <time>2013-06-13T09:50:25Z</time>
      </trkpt>
      <trkpt lat="42.80808" lon="-0.39726">
        <ele>1840.581299</ele>
        <time>2013-06-13T09:50:34Z</time>
      </trkpt>
      <trkpt lat="42.80819" lon="-0.39728">
        <ele>1839.139404</ele>
        <time>2013-06-13T09:50:45Z</time>
      </trkpt>
      <trkpt lat="42.80833" lon="-0.39732">
        <ele>1838.178223</ele>
        <time>2013-06-13T09:51:04Z</time>
      </trkpt>
      <trkpt lat="42.80834" lon="-0.39739">
        <ele>1838.178223</ele>
        <time>2013-06-13T09:51:15Z</time>
      </trkpt>
      <trkpt lat="42.80838" lon="-0.39756">
        <ele>1838.178223</ele>
        <time>2013-06-13T09:51:33Z</time>
      </trkpt>
      <trkpt lat="42.8084" lon="-0.39756">
        <ele>1837.69751</ele>
        <time>2013-06-13T09:51:36Z</time>
      </trkpt>
      <trkpt lat="42.80859" lon="-0.39765">
        <ele>1836.736084</ele>
        <time>2013-06-13T09:51:56Z</time>
      </trkpt>
      <trkpt lat="42.8087" lon="-0.39779">
        <ele>1838.658936</ele>
        <time>2013-06-13T09:52:14Z</time>
      </trkpt>
      <trkpt lat="42.80879" lon="-0.39787">
        <ele>1840.581299</ele>
        <time>2013-06-13T09:52:29Z</time>
      </trkpt>
      <trkpt lat="42.80883" lon="-0.39789">
        <ele>1840.10083</ele>
        <time>2013-06-13T09:52:35Z</time>
      </trkpt>
      <trkpt lat="42.80904" lon="-0.39793">
        <ele>1840.10083</ele>
        <time>2013-06-13T09:52:57Z</time>
      </trkpt>
      <trkpt lat="42.80924" lon="-0.39804">
        <ele>1839.620117</ele>
        <time>2013-06-13T09:53:16Z</time>
      </trkpt>
      <trkpt lat="42.80947" lon="-0.39806">
        <ele>1839.620117</ele>
        <time>2013-06-13T09:53:37Z</time>
      </trkpt>
      <trkpt lat="42.80963" lon="-0.39807">
        <ele>1839.620117</ele>
        <time>2013-06-13T09:53:54Z</time>
      </trkpt>
      <trkpt lat="42.80968" lon="-0.39806">
        <ele>1839.620117</ele>
        <time>2013-06-13T09:53:59Z</time>
      </trkpt>
      <trkpt lat="42.80987" lon="-0.39804">
        <ele>1838.658936</ele>
        <time>2013-06-13T09:54:17Z</time>
      </trkpt>
      <trkpt lat="42.81002" lon="-0.39804">
        <ele>1838.178223</ele>
        <time>2013-06-13T09:54:32Z</time>
      </trkpt>
      <trkpt lat="42.81022" lon="-0.39804">
        <ele>1836.736084</ele>
        <time>2013-06-13T09:54:52Z</time>
      </trkpt>
      <trkpt lat="42.81044" lon="-0.39807">
        <ele>1835.293945</ele>
        <time>2013-06-13T09:55:12Z</time>
      </trkpt>
      <trkpt lat="42.81063" lon="-0.39807">
        <ele>1834.813477</ele>
        <time>2013-06-13T09:55:31Z</time>
      </trkpt>
      <trkpt lat="42.81071" lon="-0.39806">
        <ele>1833.852051</ele>
        <time>2013-06-13T09:55:46Z</time>
      </trkpt>
      <trkpt lat="42.81077" lon="-0.39803">
        <ele>1832.890625</ele>
        <time>2013-06-13T09:56:07Z</time>
      </trkpt>
      <trkpt lat="42.81093" lon="-0.39795">
        <ele>1831.929443</ele>
        <time>2013-06-13T09:56:25Z</time>
      </trkpt>
      <trkpt lat="42.81096" lon="-0.39793">
        <ele>1831.929443</ele>
        <time>2013-06-13T09:56:28Z</time>
      </trkpt>
      <trkpt lat="42.81119" lon="-0.39796">
        <ele>1829.526123</ele>
        <time>2013-06-13T09:56:50Z</time>
      </trkpt>
      <trkpt lat="42.81139" lon="-0.39798">
        <ele>1827.603516</ele>
        <time>2013-06-13T09:57:10Z</time>
      </trkpt>
      <trkpt lat="42.81153" lon="-0.39801">
        <ele>1826.161621</ele>
        <time>2013-06-13T09:57:24Z</time>
      </trkpt>
      <trkpt lat="42.81175" lon="-0.3981">
        <ele>1824.239014</ele>
        <time>2013-06-13T09:57:46Z</time>
      </trkpt>
      <trkpt lat="42.81191" lon="-0.39817">
        <ele>1823.758301</ele>
        <time>2013-06-13T09:58:05Z</time>
      </trkpt>
      <trkpt lat="42.81209" lon="-0.39814">
        <ele>1823.277832</ele>
        <time>2013-06-13T09:58:25Z</time>
      </trkpt>
      <trkpt lat="42.81224" lon="-0.39809">
        <ele>1821.835693</ele>
        <time>2013-06-13T09:58:42Z</time>
      </trkpt>
      <trkpt lat="42.81228" lon="-0.39807">
        <ele>1820.874512</ele>
        <time>2013-06-13T09:58:46Z</time>
      </trkpt>
      <trkpt lat="42.81241" lon="-0.39807">
        <ele>1820.874512</ele>
        <time>2013-06-13T09:59:01Z</time>
      </trkpt>
      <trkpt lat="42.81247" lon="-0.39806">
        <ele>1819.912842</ele>
        <time>2013-06-13T09:59:09Z</time>
      </trkpt>
      <trkpt lat="42.81258" lon="-0.398">
        <ele>1816.067627</ele>
        <time>2013-06-13T09:59:23Z</time>
      </trkpt>
      <trkpt lat="42.81272" lon="-0.398">
        <ele>1813.664307</ele>
        <time>2013-06-13T09:59:39Z</time>
      </trkpt>
      <trkpt lat="42.81291" lon="-0.39801">
        <ele>1812.222412</ele>
        <time>2013-06-13T09:59:58Z</time>
      </trkpt>
      <trkpt lat="42.81291" lon="-0.39801">
        <ele>1812.222412</ele>
        <time>2013-06-13T09:59:59Z</time>
      </trkpt>
      <trkpt lat="42.81312" lon="-0.39795">
        <ele>1810.299805</ele>
        <time>2013-06-13T10:00:19Z</time>
      </trkpt>
      <trkpt lat="42.81326" lon="-0.39792">
        <ele>1808.85791</ele>
        <time>2013-06-13T10:00:37Z</time>
      </trkpt>
      <trkpt lat="42.81327" lon="-0.39787">
        <ele>1807.416016</ele>
        <time>2013-06-13T10:00:44Z</time>
      </trkpt>
      <trkpt lat="42.8134" lon="-0.39778">
        <ele>1806.935303</ele>
        <time>2013-06-13T10:01:01Z</time>
      </trkpt>
      <trkpt lat="42.81342" lon="-0.39778">
        <ele>1806.935303</ele>
        <time>2013-06-13T10:01:04Z</time>
      </trkpt>
      <trkpt lat="42.81356" lon="-0.39776">
        <ele>1806.935303</ele>
        <time>2013-06-13T10:01:19Z</time>
      </trkpt>
      <trkpt lat="42.81373" lon="-0.39771">
        <ele>1805.973877</ele>
        <time>2013-06-13T10:01:37Z</time>
      </trkpt>
      <trkpt lat="42.81391" lon="-0.39762">
        <ele>1805.493408</ele>
        <time>2013-06-13T10:01:56Z</time>
      </trkpt>
      <trkpt lat="42.81407" lon="-0.39749">
        <ele>1804.531982</ele>
        <time>2013-06-13T10:02:15Z</time>
      </trkpt>
      <trkpt lat="42.81426" lon="-0.39733">
        <ele>1804.051514</ele>
        <time>2013-06-13T10:02:35Z</time>
      </trkpt>
      <trkpt lat="42.81437" lon="-0.39718">
        <ele>1803.570557</ele>
        <time>2013-06-13T10:02:52Z</time>
      </trkpt>
      <trkpt lat="42.81445" lon="-0.39714">
        <ele>1803.570557</ele>
        <time>2013-06-13T10:03:03Z</time>
      </trkpt>
      <trkpt lat="42.81458" lon="-0.39705">
        <ele>1802.128418</ele>
        <time>2013-06-13T10:03:18Z</time>
      </trkpt>
      <trkpt lat="42.81481" lon="-0.39703">
        <ele>1799.725342</ele>
        <time>2013-06-13T10:03:40Z</time>
      </trkpt>
      <trkpt lat="42.815" lon="-0.3969">
        <ele>1800.686523</ele>
        <time>2013-06-13T10:03:58Z</time>
      </trkpt>
      <trkpt lat="42.81507" lon="-0.39681">
        <ele>1801.647949</ele>
        <time>2013-06-13T10:04:13Z</time>
      </trkpt>
      <trkpt lat="42.81512" lon="-0.39678">
        <ele>1801.647949</ele>
        <time>2013-06-13T10:04:29Z</time>
      </trkpt>
      <trkpt lat="42.81521" lon="-0.39675">
        <ele>1799.244629</ele>
        <time>2013-06-13T10:04:44Z</time>
      </trkpt>
      <trkpt lat="42.81533" lon="-0.39672">
        <ele>1798.283203</ele>
        <time>2013-06-13T10:05:01Z</time>
      </trkpt>
      <trkpt lat="42.8154" lon="-0.39672">
        <ele>1798.283203</ele>
        <time>2013-06-13T10:05:21Z</time>
      </trkpt>
      <trkpt lat="42.81551" lon="-0.39675">
        <ele>1797.802734</ele>
        <time>2013-06-13T10:05:38Z</time>
      </trkpt>
      <trkpt lat="42.81566" lon="-0.39673">
        <ele>1797.802734</ele>
        <time>2013-06-13T10:05:55Z</time>
      </trkpt>
      <trkpt lat="42.81574" lon="-0.3966">
        <ele>1796.36084</ele>
        <time>2013-06-13T10:06:11Z</time>
      </trkpt>
      <trkpt lat="42.81583" lon="-0.3966">
        <ele>1794.437988</ele>
        <time>2013-06-13T10:06:24Z</time>
      </trkpt>
      <trkpt lat="42.81585" lon="-0.39659">
        <ele>1793.476807</ele>
        <time>2013-06-13T10:06:28Z</time>
      </trkpt>
      <trkpt lat="42.81589" lon="-0.39656">
        <ele>1793.476807</ele>
        <time>2013-06-13T10:06:34Z</time>
      </trkpt>
      <trkpt lat="42.81593" lon="-0.39652">
        <ele>1793.95752</ele>
        <time>2013-06-13T10:06:39Z</time>
      </trkpt>
      <trkpt lat="42.81601" lon="-0.39645">
        <ele>1793.476807</ele>
        <time>2013-06-13T10:06:51Z</time>
      </trkpt>
      <trkpt lat="42.81604" lon="-0.39641">
        <ele>1792.034912</ele>
        <time>2013-06-13T10:06:56Z</time>
      </trkpt>
      <trkpt lat="42.81614" lon="-0.39633">
        <ele>1792.515625</ele>
        <time>2013-06-13T10:07:14Z</time>
      </trkpt>
      <trkpt lat="42.8162" lon="-0.39638">
        <ele>1790.112305</ele>
        <time>2013-06-13T10:07:28Z</time>
      </trkpt>
      <trkpt lat="42.81622" lon="-0.3964">
        <ele>1791.554199</ele>
        <time>2013-06-13T10:07:31Z</time>
      </trkpt>
      <trkpt lat="42.81626" lon="-0.3964">
        <ele>1791.554199</ele>
        <time>2013-06-13T10:07:35Z</time>
      </trkpt>
      <trkpt lat="42.81631" lon="-0.39632">
        <ele>1792.996094</ele>
        <time>2013-06-13T10:07:44Z</time>
      </trkpt>
      <trkpt lat="42.81651" lon="-0.39629">
        <ele>1790.592773</ele>
        <time>2013-06-13T10:08:03Z</time>
      </trkpt>
      <trkpt lat="42.81657" lon="-0.39611">
        <ele>1788.67041</ele>
        <time>2013-06-13T10:08:22Z</time>
      </trkpt>
      <trkpt lat="42.81663" lon="-0.39613">
        <ele>1785.786133</ele>
        <time>2013-06-13T10:08:36Z</time>
      </trkpt>
      <trkpt lat="42.81663" lon="-0.39621">
        <ele>1784.344238</ele>
        <time>2013-06-13T10:08:42Z</time>
      </trkpt>
      <trkpt lat="42.81665" lon="-0.39627">
        <ele>1783.382813</ele>
        <time>2013-06-13T10:08:47Z</time>
      </trkpt>
      <trkpt lat="42.81672" lon="-0.39624">
        <ele>1781.460205</ele>
        <time>2013-06-13T10:08:56Z</time>
      </trkpt>
      <trkpt lat="42.81674" lon="-0.39622">
        <ele>1780.499023</ele>
        <time>2013-06-13T10:08:59Z</time>
      </trkpt>
      <trkpt lat="42.81677" lon="-0.39615">
        <ele>1778.095703</ele>
        <time>2013-06-13T10:09:12Z</time>
      </trkpt>
      <trkpt lat="42.81678" lon="-0.39602">
        <ele>1776.653809</ele>
        <time>2013-06-13T10:09:26Z</time>
      </trkpt>
      <trkpt lat="42.81684" lon="-0.39592">
        <ele>1774.250488</ele>
        <time>2013-06-13T10:09:42Z</time>
      </trkpt>
      <trkpt lat="42.81686" lon="-0.39591">
        <ele>1772.808594</ele>
        <time>2013-06-13T10:09:45Z</time>
      </trkpt>
      <trkpt lat="42.8169" lon="-0.39585">
        <ele>1772.327881</ele>
        <time>2013-06-13T10:09:52Z</time>
      </trkpt>
      <trkpt lat="42.81701" lon="-0.39569">
        <ele>1772.327881</ele>
        <time>2013-06-13T10:10:08Z</time>
      </trkpt>
      <trkpt lat="42.81709" lon="-0.39558">
        <ele>1770.885742</ele>
        <time>2013-06-13T10:10:22Z</time>
      </trkpt>
      <trkpt lat="42.81714" lon="-0.39555">
        <ele>1770.885742</ele>
        <time>2013-06-13T10:10:33Z</time>
      </trkpt>
      <trkpt lat="42.81721" lon="-0.39555">
        <ele>1768.963135</ele>
        <time>2013-06-13T10:10:44Z</time>
      </trkpt>
      <trkpt lat="42.81727" lon="-0.39552">
        <ele>1767.040527</ele>
        <time>2013-06-13T10:10:51Z</time>
      </trkpt>
      <trkpt lat="42.81729" lon="-0.39552">
        <ele>1767.040527</ele>
        <time>2013-06-13T10:11:08Z</time>
      </trkpt>
      <trkpt lat="42.81731" lon="-0.39554">
        <ele>1767.040527</ele>
        <time>2013-06-13T10:11:38Z</time>
      </trkpt>
      <trkpt lat="42.81738" lon="-0.39553">
        <ele>1768.001709</ele>
        <time>2013-06-13T10:12:04Z</time>
      </trkpt>
      <trkpt lat="42.81743" lon="-0.3955">
        <ele>1765.598633</ele>
        <time>2013-06-13T10:12:16Z</time>
      </trkpt>
      <trkpt lat="42.81743" lon="-0.3955">
        <ele>1765.11792</ele>
        <time>2013-06-13T10:12:33Z</time>
      </trkpt>
      <trkpt lat="42.81745" lon="-0.39548">
        <ele>1764.156494</ele>
        <time>2013-06-13T10:12:38Z</time>
      </trkpt>
      <trkpt lat="42.81752" lon="-0.39551">
        <ele>1761.272705</ele>
        <time>2013-06-13T10:12:47Z</time>
      </trkpt>
      <trkpt lat="42.81752" lon="-0.39551">
        <ele>1760.791992</ele>
        <time>2013-06-13T10:12:48Z</time>
      </trkpt>
      <trkpt lat="42.81757" lon="-0.39556">
        <ele>1759.830566</ele>
        <time>2013-06-13T10:12:55Z</time>
      </trkpt>
      <trkpt lat="42.81759" lon="-0.39556">
        <ele>1759.350098</ele>
        <time>2013-06-13T10:12:57Z</time>
      </trkpt>
      <trkpt lat="42.81762" lon="-0.3956">
        <ele>1757.42749</ele>
        <time>2013-06-13T10:13:01Z</time>
      </trkpt>
      <trkpt lat="42.8177" lon="-0.39566">
        <ele>1754.062744</ele>
        <time>2013-06-13T10:13:15Z</time>
      </trkpt>
      <trkpt lat="42.81773" lon="-0.39565">
        <ele>1752.139893</ele>
        <time>2013-06-13T10:13:20Z</time>
      </trkpt>
      <trkpt lat="42.81774" lon="-0.39565">
        <ele>1751.659424</ele>
        <time>2013-06-13T10:13:21Z</time>
      </trkpt>
      <trkpt lat="42.81777" lon="-0.3956">
        <ele>1751.178711</ele>
        <time>2013-06-13T10:13:26Z</time>
      </trkpt>
      <trkpt lat="42.81784" lon="-0.39545">
        <ele>1748.294678</ele>
        <time>2013-06-13T10:13:39Z</time>
      </trkpt>
      <trkpt lat="42.8179" lon="-0.39538">
        <ele>1745.410889</ele>
        <time>2013-06-13T10:13:52Z</time>
      </trkpt>
      <trkpt lat="42.81791" lon="-0.39537">
        <ele>1745.891602</ele>
        <time>2013-06-13T10:13:54Z</time>
      </trkpt>
      <trkpt lat="42.81802" lon="-0.39524">
        <ele>1742.5271</ele>
        <time>2013-06-13T10:14:11Z</time>
      </trkpt>
      <trkpt lat="42.81801" lon="-0.39532">
        <ele>1742.5271</ele>
        <time>2013-06-13T10:14:23Z</time>
      </trkpt>
      <trkpt lat="42.81803" lon="-0.39534">
        <ele>1741.084961</ele>
        <time>2013-06-13T10:14:35Z</time>
      </trkpt>
      <trkpt lat="42.81802" lon="-0.39538">
        <ele>1738.681641</ele>
        <time>2013-06-13T10:14:39Z</time>
      </trkpt>
      <trkpt lat="42.81804" lon="-0.39537">
        <ele>1738.681641</ele>
        <time>2013-06-13T10:14:42Z</time>
      </trkpt>
      <trkpt lat="42.8181" lon="-0.39531">
        <ele>1737.239502</ele>
        <time>2013-06-13T10:14:49Z</time>
      </trkpt>
      <trkpt lat="42.81822" lon="-0.3952">
        <ele>1733.875</ele>
        <time>2013-06-13T10:15:06Z</time>
      </trkpt>
      <trkpt lat="42.8183" lon="-0.39512">
        <ele>1731.47168</ele>
        <time>2013-06-13T10:15:19Z</time>
      </trkpt>
      <trkpt lat="42.81841" lon="-0.39493">
        <ele>1730.029785</ele>
        <time>2013-06-13T10:15:38Z</time>
      </trkpt>
      <trkpt lat="42.8184" lon="-0.39487">
        <ele>1730.029785</ele>
        <time>2013-06-13T10:15:45Z</time>
      </trkpt>
      <trkpt lat="42.81839" lon="-0.39471">
        <ele>1726.665283</ele>
        <time>2013-06-13T10:15:58Z</time>
      </trkpt>
      <trkpt lat="42.81841" lon="-0.39463">
        <ele>1724.742676</ele>
        <time>2013-06-13T10:16:06Z</time>
      </trkpt>
      <trkpt lat="42.81847" lon="-0.39465">
        <ele>1721.377686</ele>
        <time>2013-06-13T10:16:15Z</time>
      </trkpt>
      <trkpt lat="42.81847" lon="-0.39464">
        <ele>1721.858398</ele>
        <time>2013-06-13T10:16:16Z</time>
      </trkpt>
      <trkpt lat="42.81852" lon="-0.39464">
        <ele>1718.493896</ele>
        <time>2013-06-13T10:16:26Z</time>
      </trkpt>
      <trkpt lat="42.81853" lon="-0.39464">
        <ele>1717.532471</ele>
        <time>2013-06-13T10:16:30Z</time>
      </trkpt>
      <trkpt lat="42.81856" lon="-0.39467">
        <ele>1715.129395</ele>
        <time>2013-06-13T10:16:41Z</time>
      </trkpt>
      <trkpt lat="42.8186" lon="-0.39469">
        <ele>1713.687256</ele>
        <time>2013-06-13T10:16:54Z</time>
      </trkpt>
      <trkpt lat="42.81862" lon="-0.39469">
        <ele>1712.245361</ele>
        <time>2013-06-13T10:16:59Z</time>
      </trkpt>
      <trkpt lat="42.81865" lon="-0.39472">
        <ele>1710.322754</ele>
        <time>2013-06-13T10:17:08Z</time>
      </trkpt>
      <trkpt lat="42.81869" lon="-0.3947">
        <ele>1708.400146</ele>
        <time>2013-06-13T10:17:16Z</time>
      </trkpt>
      <trkpt lat="42.81869" lon="-0.39468">
        <ele>1706.477295</ele>
        <time>2013-06-13T10:17:19Z</time>
      </trkpt>
      <trkpt lat="42.81874" lon="-0.39453">
        <ele>1703.593506</ele>
        <time>2013-06-13T10:17:34Z</time>
      </trkpt>
      <trkpt lat="42.81878" lon="-0.39452">
        <ele>1701.670898</ele>
        <time>2013-06-13T10:17:46Z</time>
      </trkpt>
      <trkpt lat="42.81883" lon="-0.39454">
        <ele>1698.306152</ele>
        <time>2013-06-13T10:17:56Z</time>
      </trkpt>
      <trkpt lat="42.81884" lon="-0.3946">
        <ele>1696.864258</ele>
        <time>2013-06-13T10:18:03Z</time>
      </trkpt>
      <trkpt lat="42.81885" lon="-0.39474">
        <ele>1693.499756</ele>
        <time>2013-06-13T10:18:15Z</time>
      </trkpt>
      <trkpt lat="42.81888" lon="-0.39478">
        <ele>1690.615479</ele>
        <time>2013-06-13T10:18:23Z</time>
      </trkpt>
      <trkpt lat="42.81894" lon="-0.39484">
        <ele>1687.250977</ele>
        <time>2013-06-13T10:18:34Z</time>
      </trkpt>
      <trkpt lat="42.81898" lon="-0.39489">
        <ele>1684.367188</ele>
        <time>2013-06-13T10:18:43Z</time>
      </trkpt>
      <trkpt lat="42.819" lon="-0.39491">
        <ele>1682.925049</ele>
        <time>2013-06-13T10:18:46Z</time>
      </trkpt>
      <trkpt lat="42.81904" lon="-0.39499">
        <ele>1679.560547</ele>
        <time>2013-06-13T10:18:58Z</time>
      </trkpt>
      <trkpt lat="42.81904" lon="-0.39503">
        <ele>1677.637939</ele>
        <time>2013-06-13T10:19:03Z</time>
      </trkpt>
      <trkpt lat="42.81906" lon="-0.39516">
        <ele>1674.273193</ele>
        <time>2013-06-13T10:19:17Z</time>
      </trkpt>
      <trkpt lat="42.81906" lon="-0.39524">
        <ele>1670.908691</ele>
        <time>2013-06-13T10:19:26Z</time>
      </trkpt>
      <trkpt lat="42.81907" lon="-0.39525">
        <ele>1669.947266</ele>
        <time>2013-06-13T10:19:28Z</time>
      </trkpt>
      <trkpt lat="42.81908" lon="-0.39527">
        <ele>1668.986084</ele>
        <time>2013-06-13T10:19:31Z</time>
      </trkpt>
      <trkpt lat="42.81914" lon="-0.3953">
        <ele>1667.063477</ele>
        <time>2013-06-13T10:19:44Z</time>
      </trkpt>
      <trkpt lat="42.81915" lon="-0.3953">
        <ele>1666.102051</ele>
        <time>2013-06-13T10:19:45Z</time>
      </trkpt>
      <trkpt lat="42.81925" lon="-0.39522">
        <ele>1663.218262</ele>
        <time>2013-06-13T10:19:58Z</time>
      </trkpt>
      <trkpt lat="42.81929" lon="-0.39531">
        <ele>1660.334229</ele>
        <time>2013-06-13T10:20:10Z</time>
      </trkpt>
      <trkpt lat="42.81933" lon="-0.39539">
        <ele>1656.48877</ele>
        <time>2013-06-13T10:20:21Z</time>
      </trkpt>
      <trkpt lat="42.81934" lon="-0.3954">
        <ele>1656.48877</ele>
        <time>2013-06-13T10:20:22Z</time>
      </trkpt>
      <trkpt lat="42.81935" lon="-0.39542">
        <ele>1654.566162</ele>
        <time>2013-06-13T10:20:25Z</time>
      </trkpt>
      <trkpt lat="42.8194" lon="-0.39545">
        <ele>1651.20166</ele>
        <time>2013-06-13T10:20:31Z</time>
      </trkpt>
      <trkpt lat="42.81947" lon="-0.39553">
        <ele>1649.279053</ele>
        <time>2013-06-13T10:20:42Z</time>
      </trkpt>
      <trkpt lat="42.81951" lon="-0.3956">
        <ele>1645.914551</ele>
        <time>2013-06-13T10:20:49Z</time>
      </trkpt>
      <trkpt lat="42.81955" lon="-0.39566">
        <ele>1642.549805</ele>
        <time>2013-06-13T10:20:57Z</time>
      </trkpt>
      <trkpt lat="42.81955" lon="-0.39567">
        <ele>1642.549805</ele>
        <time>2013-06-13T10:20:58Z</time>
      </trkpt>
      <trkpt lat="42.81957" lon="-0.39572">
        <ele>1639.665771</ele>
        <time>2013-06-13T10:21:04Z</time>
      </trkpt>
      <trkpt lat="42.81962" lon="-0.3958">
        <ele>1637.262451</ele>
        <time>2013-06-13T10:21:15Z</time>
      </trkpt>
      <trkpt lat="42.81962" lon="-0.39581">
        <ele>1637.262451</ele>
        <time>2013-06-13T10:21:16Z</time>
      </trkpt>
      <trkpt lat="42.81962" lon="-0.39585">
        <ele>1637.262451</ele>
        <time>2013-06-13T10:21:19Z</time>
      </trkpt>
      <trkpt lat="42.81954" lon="-0.39599">
        <ele>1633.417236</ele>
        <time>2013-06-13T10:21:34Z</time>
      </trkpt>
      <trkpt lat="42.81953" lon="-0.39613">
        <ele>1631.975342</ele>
        <time>2013-06-13T10:21:48Z</time>
      </trkpt>
      <trkpt lat="42.81953" lon="-0.39622">
        <ele>1629.572021</ele>
        <time>2013-06-13T10:21:56Z</time>
      </trkpt>
      <trkpt lat="42.8195" lon="-0.39637">
        <ele>1627.64917</ele>
        <time>2013-06-13T10:22:09Z</time>
      </trkpt>
      <trkpt lat="42.8195" lon="-0.39638">
        <ele>1627.168701</ele>
        <time>2013-06-13T10:22:10Z</time>
      </trkpt>
      <trkpt lat="42.81946" lon="-0.3965">
        <ele>1626.207275</ele>
        <time>2013-06-13T10:22:20Z</time>
      </trkpt>
      <trkpt lat="42.81946" lon="-0.39653">
        <ele>1624.765381</ele>
        <time>2013-06-13T10:22:22Z</time>
      </trkpt>
      <trkpt lat="42.81945" lon="-0.39656">
        <ele>1624.284668</ele>
        <time>2013-06-13T10:22:25Z</time>
      </trkpt>
      <trkpt lat="42.81938" lon="-0.39673">
        <ele>1622.842773</ele>
        <time>2013-06-13T10:22:41Z</time>
      </trkpt>
      <trkpt lat="42.81933" lon="-0.39686">
        <ele>1620.920166</ele>
        <time>2013-06-13T10:22:59Z</time>
      </trkpt>
      <trkpt lat="42.81929" lon="-0.39694">
        <ele>1618.997559</ele>
        <time>2013-06-13T10:23:12Z</time>
      </trkpt>
      <trkpt lat="42.81927" lon="-0.39704">
        <ele>1616.113525</ele>
        <time>2013-06-13T10:23:24Z</time>
      </trkpt>
      <trkpt lat="42.81928" lon="-0.39705">
        <ele>1616.113525</ele>
        <time>2013-06-13T10:23:25Z</time>
      </trkpt>
      <trkpt lat="42.81926" lon="-0.39723">
        <ele>1614.190918</ele>
        <time>2013-06-13T10:23:42Z</time>
      </trkpt>
      <trkpt lat="42.81924" lon="-0.39743">
        <ele>1611.787598</ele>
        <time>2013-06-13T10:23:59Z</time>
      </trkpt>
      <trkpt lat="42.81918" lon="-0.39762">
        <ele>1610.826172</ele>
        <time>2013-06-13T10:24:12Z</time>
      </trkpt>
      <trkpt lat="42.81915" lon="-0.39765">
        <ele>1610.345459</ele>
        <time>2013-06-13T10:24:15Z</time>
      </trkpt>
      <trkpt lat="42.81909" lon="-0.39785">
        <ele>1607.46167</ele>
        <time>2013-06-13T10:24:31Z</time>
      </trkpt>
      <trkpt lat="42.81902" lon="-0.39803">
        <ele>1605.539063</ele>
        <time>2013-06-13T10:24:45Z</time>
      </trkpt>
      <trkpt lat="42.81895" lon="-0.39818">
        <ele>1602.174316</ele>
        <time>2013-06-13T10:25:01Z</time>
      </trkpt>
      <trkpt lat="42.81891" lon="-0.39829">
        <ele>1600.251953</ele>
        <time>2013-06-13T10:25:14Z</time>
      </trkpt>
      <trkpt lat="42.81882" lon="-0.39847">
        <ele>1599.290527</ele>
        <time>2013-06-13T10:25:30Z</time>
      </trkpt>
      <trkpt lat="42.81881" lon="-0.39848">
        <ele>1599.77124</ele>
        <time>2013-06-13T10:25:31Z</time>
      </trkpt>
      <trkpt lat="42.81877" lon="-0.39851">
        <ele>1599.290527</ele>
        <time>2013-06-13T10:25:35Z</time>
      </trkpt>
      <trkpt lat="42.81862" lon="-0.39873">
        <ele>1600.251953</ele>
        <time>2013-06-13T10:25:56Z</time>
      </trkpt>
      <trkpt lat="42.81857" lon="-0.39876">
        <ele>1600.732422</ele>
        <time>2013-06-13T10:26:15Z</time>
      </trkpt>
      <trkpt lat="42.81854" lon="-0.39874">
        <ele>1600.732422</ele>
        <time>2013-06-13T10:26:40Z</time>
      </trkpt>
      <trkpt lat="42.8185" lon="-0.39874">
        <ele>1600.251953</ele>
        <time>2013-06-13T10:27:03Z</time>
      </trkpt>
      <trkpt lat="42.81857" lon="-0.39876">
        <ele>1600.251953</ele>
        <time>2013-06-13T10:27:42Z</time>
      </trkpt>
      <trkpt lat="42.81859" lon="-0.39874">
        <ele>1601.213135</ele>
        <time>2013-06-13T10:27:51Z</time>
      </trkpt>
      <trkpt lat="42.81852" lon="-0.39874">
        <ele>1599.77124</ele>
        <time>2013-06-13T10:28:37Z</time>
      </trkpt>
      <trkpt lat="42.81868" lon="-0.39875">
        <ele>1599.77124</ele>
        <time>2013-06-13T10:30:30Z</time>
      </trkpt>
      <trkpt lat="42.81859" lon="-0.39874">
        <ele>1599.290527</ele>
        <time>2013-06-13T10:31:21Z</time>
      </trkpt>
      <trkpt lat="42.81856" lon="-0.39872">
        <ele>1600.251953</ele>
        <time>2013-06-13T10:33:25Z</time>
      </trkpt>
      <trkpt lat="42.81864" lon="-0.39873">
        <ele>1598.329102</ele>
        <time>2013-06-13T10:35:30Z</time>
      </trkpt>
      <trkpt lat="42.81871" lon="-0.39872">
        <ele>1598.329102</ele>
        <time>2013-06-13T10:36:23Z</time>
      </trkpt>
      <trkpt lat="42.81852" lon="-0.39874">
        <ele>1597.848633</ele>
        <time>2013-06-13T10:37:21Z</time>
      </trkpt>
      <trkpt lat="42.81863" lon="-0.39864">
        <ele>1598.809814</ele>
        <time>2013-06-13T10:38:05Z</time>
      </trkpt>
      <trkpt lat="42.81863" lon="-0.3987">
        <ele>1599.77124</ele>
        <time>2013-06-13T10:44:22Z</time>
      </trkpt>
      <trkpt lat="42.81852" lon="-0.39875">
        <ele>1600.251953</ele>
        <time>2013-06-13T10:44:35Z</time>
      </trkpt>
      <trkpt lat="42.81852" lon="-0.39875">
        <ele>1599.290527</ele>
        <time>2013-06-13T10:44:54Z</time>
      </trkpt>
      <trkpt lat="42.81855" lon="-0.39874">
        <ele>1599.77124</ele>
        <time>2013-06-13T10:45:37Z</time>
      </trkpt>
      <trkpt lat="42.81856" lon="-0.39878">
        <ele>1599.77124</ele>
        <time>2013-06-13T10:46:44Z</time>
      </trkpt>
      <trkpt lat="42.81859" lon="-0.39875">
        <ele>1599.77124</ele>
        <time>2013-06-13T10:46:48Z</time>
      </trkpt>
      <trkpt lat="42.8187" lon="-0.39872">
        <ele>1599.290527</ele>
        <time>2013-06-13T10:46:57Z</time>
      </trkpt>
      <trkpt lat="42.81882" lon="-0.39854">
        <ele>1597.848633</ele>
        <time>2013-06-13T10:47:13Z</time>
      </trkpt>
      <trkpt lat="42.81887" lon="-0.39848">
        <ele>1598.329102</ele>
        <time>2013-06-13T10:47:18Z</time>
      </trkpt>
      <trkpt lat="42.81906" lon="-0.39831">
        <ele>1595.925781</ele>
        <time>2013-06-13T10:47:39Z</time>
      </trkpt>
      <trkpt lat="42.81919" lon="-0.39819">
        <ele>1594.483643</ele>
        <time>2013-06-13T10:47:53Z</time>
      </trkpt>
      <trkpt lat="42.81939" lon="-0.39803">
        <ele>1593.041748</ele>
        <time>2013-06-13T10:48:11Z</time>
      </trkpt>
      <trkpt lat="42.81952" lon="-0.39789">
        <ele>1591.599854</ele>
        <time>2013-06-13T10:48:25Z</time>
      </trkpt>
      <trkpt lat="42.81955" lon="-0.39782">
        <ele>1590.638428</ele>
        <time>2013-06-13T10:48:35Z</time>
      </trkpt>
      <trkpt lat="42.81958" lon="-0.39773">
        <ele>1588.716064</ele>
        <time>2013-06-13T10:48:46Z</time>
      </trkpt>
      <trkpt lat="42.81982" lon="-0.39742">
        <ele>1586.793213</ele>
        <time>2013-06-13T10:49:07Z</time>
      </trkpt>
      <trkpt lat="42.82005" lon="-0.39712">
        <ele>1584.87085</ele>
        <time>2013-06-13T10:49:26Z</time>
      </trkpt>
      <trkpt lat="42.82028" lon="-0.39676">
        <ele>1581.986816</ele>
        <time>2013-06-13T10:49:52Z</time>
      </trkpt>
      <trkpt lat="42.82047" lon="-0.39648">
        <ele>1579.583252</ele>
        <time>2013-06-13T10:50:14Z</time>
      </trkpt>
      <trkpt lat="42.82066" lon="-0.3962">
        <ele>1578.62207</ele>
        <time>2013-06-13T10:50:36Z</time>
      </trkpt>
      <trkpt lat="42.82081" lon="-0.39598">
        <ele>1577.180176</ele>
        <time>2013-06-13T10:50:58Z</time>
      </trkpt>
      <trkpt lat="42.82082" lon="-0.396">
        <ele>1576.699463</ele>
        <time>2013-06-13T10:51:15Z</time>
      </trkpt>
      <trkpt lat="42.82082" lon="-0.396">
        <ele>1577.180176</ele>
        <time>2013-06-13T10:51:30Z</time>
      </trkpt>
      <trkpt lat="42.82081" lon="-0.39601">
        <ele>1577.180176</ele>
        <time>2013-06-13T10:51:49Z</time>
      </trkpt>
      <trkpt lat="42.82083" lon="-0.39595">
        <ele>1577.180176</ele>
        <time>2013-06-13T10:52:03Z</time>
      </trkpt>
      <trkpt lat="42.82096" lon="-0.39573">
        <ele>1574.776855</ele>
        <time>2013-06-13T10:52:22Z</time>
      </trkpt>
      <trkpt lat="42.82111" lon="-0.39553">
        <ele>1573.334961</ele>
        <time>2013-06-13T10:52:41Z</time>
      </trkpt>
      <trkpt lat="42.82131" lon="-0.39544">
        <ele>1571.892822</ele>
        <time>2013-06-13T10:53:01Z</time>
      </trkpt>
      <trkpt lat="42.82156" lon="-0.39535">
        <ele>1570.931641</ele>
        <time>2013-06-13T10:53:23Z</time>
      </trkpt>
      <trkpt lat="42.82177" lon="-0.39525">
        <ele>1568.52832</ele>
        <time>2013-06-13T10:53:43Z</time>
      </trkpt>
      <trkpt lat="42.82198" lon="-0.39512">
        <ele>1566.605713</ele>
        <time>2013-06-13T10:54:03Z</time>
      </trkpt>
      <trkpt lat="42.82203" lon="-0.39514">
        <ele>1565.163818</ele>
        <time>2013-06-13T10:54:15Z</time>
      </trkpt>
      <trkpt lat="42.82204" lon="-0.39519">
        <ele>1563.240967</ele>
        <time>2013-06-13T10:54:27Z</time>
      </trkpt>
      <trkpt lat="42.82223" lon="-0.39514">
        <ele>1561.318359</ele>
        <time>2013-06-13T10:54:46Z</time>
      </trkpt>
      <trkpt lat="42.82236" lon="-0.39512">
        <ele>1558.434326</ele>
        <time>2013-06-13T10:55:00Z</time>
      </trkpt>
      <trkpt lat="42.82248" lon="-0.39506">
        <ele>1554.589111</ele>
        <time>2013-06-13T10:55:13Z</time>
      </trkpt>
      <trkpt lat="42.82267" lon="-0.39501">
        <ele>1552.185791</ele>
        <time>2013-06-13T10:55:31Z</time>
      </trkpt>
      <trkpt lat="42.82281" lon="-0.39498">
        <ele>1549.782715</ele>
        <time>2013-06-13T10:55:47Z</time>
      </trkpt>
      <trkpt lat="42.82291" lon="-0.39496">
        <ele>1546.898438</ele>
        <time>2013-06-13T10:55:58Z</time>
      </trkpt>
      <trkpt lat="42.82306" lon="-0.39486">
        <ele>1544.495117</ele>
        <time>2013-06-13T10:56:15Z</time>
      </trkpt>
      <trkpt lat="42.82311" lon="-0.39482">
        <ele>1543.053223</ele>
        <time>2013-06-13T10:56:22Z</time>
      </trkpt>
      <trkpt lat="42.82323" lon="-0.39479">
        <ele>1541.611328</ele>
        <time>2013-06-13T10:56:37Z</time>
      </trkpt>
      <trkpt lat="42.82339" lon="-0.39466">
        <ele>1540.169434</ele>
        <time>2013-06-13T10:56:56Z</time>
      </trkpt>
      <trkpt lat="42.82349" lon="-0.39447">
        <ele>1536.804688</ele>
        <time>2013-06-13T10:57:13Z</time>
      </trkpt>
      <trkpt lat="42.82351" lon="-0.39443">
        <ele>1535.362793</ele>
        <time>2013-06-13T10:57:16Z</time>
      </trkpt>
      <trkpt lat="42.82351" lon="-0.39432">
        <ele>1534.401611</ele>
        <time>2013-06-13T10:57:24Z</time>
      </trkpt>
      <trkpt lat="42.82346" lon="-0.39409">
        <ele>1531.517334</ele>
        <time>2013-06-13T10:57:42Z</time>
      </trkpt>
      <trkpt lat="42.82346" lon="-0.39404">
        <ele>1529.594727</ele>
        <time>2013-06-13T10:57:48Z</time>
      </trkpt>
      <trkpt lat="42.82344" lon="-0.39394">
        <ele>1527.19165</ele>
        <time>2013-06-13T10:57:59Z</time>
      </trkpt>
      <trkpt lat="42.8234" lon="-0.39385">
        <ele>1523.826904</ele>
        <time>2013-06-13T10:58:12Z</time>
      </trkpt>
      <trkpt lat="42.82339" lon="-0.39385">
        <ele>1524.307617</ele>
        <time>2013-06-13T10:58:13Z</time>
      </trkpt>
      <trkpt lat="42.82336" lon="-0.39375">
        <ele>1520.943115</ele>
        <time>2013-06-13T10:58:28Z</time>
      </trkpt>
      <trkpt lat="42.82336" lon="-0.39364">
        <ele>1518.059082</ele>
        <time>2013-06-13T10:58:43Z</time>
      </trkpt>
      <trkpt lat="42.82336" lon="-0.39363">
        <ele>1517.0979</ele>
        <time>2013-06-13T10:58:44Z</time>
      </trkpt>
      <trkpt lat="42.82339" lon="-0.39354">
        <ele>1515.655762</ele>
        <time>2013-06-13T10:58:58Z</time>
      </trkpt>
      <trkpt lat="42.82341" lon="-0.39349">
        <ele>1514.694336</ele>
        <time>2013-06-13T10:59:02Z</time>
      </trkpt>
      <trkpt lat="42.82351" lon="-0.39349">
        <ele>1512.771729</ele>
        <time>2013-06-13T10:59:18Z</time>
      </trkpt>
      <trkpt lat="42.82359" lon="-0.39348">
        <ele>1510.368408</ele>
        <time>2013-06-13T10:59:28Z</time>
      </trkpt>
      <trkpt lat="42.82369" lon="-0.39343">
        <ele>1507.965332</ele>
        <time>2013-06-13T10:59:46Z</time>
      </trkpt>
      <trkpt lat="42.82378" lon="-0.39338">
        <ele>1505.562012</ele>
        <time>2013-06-13T11:00:03Z</time>
      </trkpt>
      <trkpt lat="42.8238" lon="-0.39336">
        <ele>1504.120117</ele>
        <time>2013-06-13T11:00:07Z</time>
      </trkpt>
      <trkpt lat="42.82388" lon="-0.39329">
        <ele>1500.755371</ele>
        <time>2013-06-13T11:00:20Z</time>
      </trkpt>
      <trkpt lat="42.82394" lon="-0.39325">
        <ele>1498.351807</ele>
        <time>2013-06-13T11:00:35Z</time>
      </trkpt>
      <trkpt lat="42.82398" lon="-0.39319">
        <ele>1497.390625</ele>
        <time>2013-06-13T11:00:50Z</time>
      </trkpt>
      <trkpt lat="42.82401" lon="-0.3931">
        <ele>1494.987305</ele>
        <time>2013-06-13T11:01:07Z</time>
      </trkpt>
      <trkpt lat="42.82402" lon="-0.39306">
        <ele>1493.54541</ele>
        <time>2013-06-13T11:01:12Z</time>
      </trkpt>
      <trkpt lat="42.82405" lon="-0.39304">
        <ele>1492.103516</ele>
        <time>2013-06-13T11:01:17Z</time>
      </trkpt>
      <trkpt lat="42.8241" lon="-0.39301">
        <ele>1491.14209</ele>
        <time>2013-06-13T11:01:33Z</time>
      </trkpt>
      <trkpt lat="42.82416" lon="-0.393">
        <ele>1489.700195</ele>
        <time>2013-06-13T11:01:46Z</time>
      </trkpt>
      <trkpt lat="42.82426" lon="-0.39305">
        <ele>1488.258301</ele>
        <time>2013-06-13T11:02:05Z</time>
      </trkpt>
      <trkpt lat="42.82429" lon="-0.39306">
        <ele>1488.739014</ele>
        <time>2013-06-13T11:02:47Z</time>
      </trkpt>
      <trkpt lat="42.8244" lon="-0.39322">
        <ele>1486.335693</ele>
        <time>2013-06-13T11:03:06Z</time>
      </trkpt>
      <trkpt lat="42.82449" lon="-0.39327">
        <ele>1486.335693</ele>
        <time>2013-06-13T11:03:24Z</time>
      </trkpt>
      <trkpt lat="42.82446" lon="-0.39326">
        <ele>1486.335693</ele>
        <time>2013-06-13T11:03:41Z</time>
      </trkpt>
      <trkpt lat="42.82444" lon="-0.39325">
        <ele>1486.816162</ele>
        <time>2013-06-13T11:04:26Z</time>
      </trkpt>
      <trkpt lat="42.82442" lon="-0.39328">
        <ele>1486.816162</ele>
        <time>2013-06-13T11:05:43Z</time>
      </trkpt>
      <trkpt lat="42.82442" lon="-0.39327">
        <ele>1485.85498</ele>
        <time>2013-06-13T11:06:40Z</time>
      </trkpt>
      <trkpt lat="42.82437" lon="-0.39325">
        <ele>1486.335693</ele>
        <time>2013-06-13T11:06:51Z</time>
      </trkpt>
      <trkpt lat="42.82437" lon="-0.39321">
        <ele>1486.816162</ele>
        <time>2013-06-13T11:07:07Z</time>
      </trkpt>
      <trkpt lat="42.82432" lon="-0.39313">
        <ele>1487.296875</ele>
        <time>2013-06-13T11:07:45Z</time>
      </trkpt>
      <trkpt lat="42.82426" lon="-0.39305">
        <ele>1488.739014</ele>
        <time>2013-06-13T11:08:01Z</time>
      </trkpt>
      <trkpt lat="42.82422" lon="-0.39302">
        <ele>1488.258301</ele>
        <time>2013-06-13T11:08:06Z</time>
      </trkpt>
      <trkpt lat="42.82419" lon="-0.39299">
        <ele>1489.700195</ele>
        <time>2013-06-13T11:08:19Z</time>
      </trkpt>
      <trkpt lat="42.82418" lon="-0.39299">
        <ele>1489.219482</ele>
        <time>2013-06-13T11:08:35Z</time>
      </trkpt>
      <trkpt lat="42.82412" lon="-0.39301">
        <ele>1490.180908</ele>
        <time>2013-06-13T11:08:53Z</time>
      </trkpt>
      <trkpt lat="42.8241" lon="-0.39305">
        <ele>1489.700195</ele>
        <time>2013-06-13T11:09:22Z</time>
      </trkpt>
      <trkpt lat="42.82402" lon="-0.39319">
        <ele>1491.622803</ele>
        <time>2013-06-13T11:09:37Z</time>
      </trkpt>
      <trkpt lat="42.824" lon="-0.39314">
        <ele>1493.064697</ele>
        <time>2013-06-13T11:09:48Z</time>
      </trkpt>
      <trkpt lat="42.82399" lon="-0.3931">
        <ele>1494.026123</ele>
        <time>2013-06-13T11:10:05Z</time>
      </trkpt>
      <trkpt lat="42.82394" lon="-0.39317">
        <ele>1494.506592</ele>
        <time>2013-06-13T11:10:18Z</time>
      </trkpt>
      <trkpt lat="42.82384" lon="-0.39327">
        <ele>1496.909912</ele>
        <time>2013-06-13T11:10:32Z</time>
      </trkpt>
      <trkpt lat="42.8238" lon="-0.39335">
        <ele>1498.83252</ele>
        <time>2013-06-13T11:10:44Z</time>
      </trkpt>
      <trkpt lat="42.82381" lon="-0.39332">
        <ele>1501.236084</ele>
        <time>2013-06-13T11:10:58Z</time>
      </trkpt>
      <trkpt lat="42.82373" lon="-0.39339">
        <ele>1502.677979</ele>
        <time>2013-06-13T11:11:10Z</time>
      </trkpt>
      <trkpt lat="42.82368" lon="-0.39348">
        <ele>1505.081299</ele>
        <time>2013-06-13T11:11:27Z</time>
      </trkpt>
      <trkpt lat="42.82366" lon="-0.39348">
        <ele>1507.003906</ele>
        <time>2013-06-13T11:11:33Z</time>
      </trkpt>
      <trkpt lat="42.82362" lon="-0.39353">
        <ele>1508.926514</ele>
        <time>2013-06-13T11:11:47Z</time>
      </trkpt>
      <trkpt lat="42.82351" lon="-0.39353">
        <ele>1510.849121</ele>
        <time>2013-06-13T11:12:03Z</time>
      </trkpt>
      <trkpt lat="42.82348" lon="-0.39359">
        <ele>1511.810547</ele>
        <time>2013-06-13T11:12:15Z</time>
      </trkpt>
      <trkpt lat="42.82351" lon="-0.39365">
        <ele>1514.694336</ele>
        <time>2013-06-13T11:12:27Z</time>
      </trkpt>
      <trkpt lat="42.8235" lon="-0.39371">
        <ele>1517.578369</ele>
        <time>2013-06-13T11:12:41Z</time>
      </trkpt>
      <trkpt lat="42.82356" lon="-0.39377">
        <ele>1518.539795</ele>
        <time>2013-06-13T11:12:51Z</time>
      </trkpt>
      <trkpt lat="42.82362" lon="-0.39381">
        <ele>1519.501221</ele>
        <time>2013-06-13T11:13:00Z</time>
      </trkpt>
      <trkpt lat="42.82352" lon="-0.39392">
        <ele>1521.904297</ele>
        <time>2013-06-13T11:13:09Z</time>
      </trkpt>
      <trkpt lat="42.8235" lon="-0.3939">
        <ele>1521.904297</ele>
        <time>2013-06-13T11:13:13Z</time>
      </trkpt>
      <trkpt lat="42.8235" lon="-0.39393">
        <ele>1523.826904</ele>
        <time>2013-06-13T11:13:27Z</time>
      </trkpt>
      <trkpt lat="42.82358" lon="-0.394">
        <ele>1526.230225</ele>
        <time>2013-06-13T11:13:40Z</time>
      </trkpt>
      <trkpt lat="42.82352" lon="-0.39403">
        <ele>1527.672119</ele>
        <time>2013-06-13T11:13:51Z</time>
      </trkpt>
      <trkpt lat="42.8235" lon="-0.39407">
        <ele>1528.633545</ele>
        <time>2013-06-13T11:14:05Z</time>
      </trkpt>
      <trkpt lat="42.82352" lon="-0.39418">
        <ele>1530.556152</ele>
        <time>2013-06-13T11:14:19Z</time>
      </trkpt>
      <trkpt lat="42.82351" lon="-0.39433">
        <ele>1533.440186</ele>
        <time>2013-06-13T11:14:35Z</time>
      </trkpt>
      <trkpt lat="42.82346" lon="-0.39444">
        <ele>1534.401611</ele>
        <time>2013-06-13T11:14:44Z</time>
      </trkpt>
      <trkpt lat="42.82331" lon="-0.39461">
        <ele>1536.804688</ele>
        <time>2013-06-13T11:15:04Z</time>
      </trkpt>
      <trkpt lat="42.82319" lon="-0.39472">
        <ele>1539.688721</ele>
        <time>2013-06-13T11:15:19Z</time>
      </trkpt>
      <trkpt lat="42.82307" lon="-0.3948">
        <ele>1542.092041</ele>
        <time>2013-06-13T11:15:32Z</time>
      </trkpt>
      <trkpt lat="42.823" lon="-0.39484">
        <ele>1544.014648</ele>
        <time>2013-06-13T11:15:40Z</time>
      </trkpt>
      <trkpt lat="42.82285" lon="-0.3949">
        <ele>1544.97583</ele>
        <time>2013-06-13T11:15:55Z</time>
      </trkpt>
      <trkpt lat="42.82273" lon="-0.39492">
        <ele>1548.340576</ele>
        <time>2013-06-13T11:16:07Z</time>
      </trkpt>
      <trkpt lat="42.82258" lon="-0.39497">
        <ele>1551.705322</ele>
        <time>2013-06-13T11:16:21Z</time>
      </trkpt>
      <trkpt lat="42.82242" lon="-0.39503">
        <ele>1552.666504</ele>
        <time>2013-06-13T11:16:36Z</time>
      </trkpt>
      <trkpt lat="42.82237" lon="-0.39505">
        <ele>1553.62793</ele>
        <time>2013-06-13T11:16:41Z</time>
      </trkpt>
      <trkpt lat="42.82228" lon="-0.39508">
        <ele>1554.108643</ele>
        <time>2013-06-13T11:16:51Z</time>
      </trkpt>
      <trkpt lat="42.82204" lon="-0.39516">
        <ele>1556.031006</ele>
        <time>2013-06-13T11:17:12Z</time>
      </trkpt>
      <trkpt lat="42.82185" lon="-0.39521">
        <ele>1557.953857</ele>
        <time>2013-06-13T11:17:30Z</time>
      </trkpt>
      <trkpt lat="42.82168" lon="-0.39529">
        <ele>1560.837646</ele>
        <time>2013-06-13T11:17:48Z</time>
      </trkpt>
      <trkpt lat="42.82159" lon="-0.39529">
        <ele>1563.721436</ele>
        <time>2013-06-13T11:18:04Z</time>
      </trkpt>
      <trkpt lat="42.82151" lon="-0.39527">
        <ele>1564.202393</ele>
        <time>2013-06-13T11:18:35Z</time>
      </trkpt>
      <trkpt lat="42.82131" lon="-0.39535">
        <ele>1565.644531</ele>
        <time>2013-06-13T11:18:55Z</time>
      </trkpt>
      <trkpt lat="42.82111" lon="-0.39546">
        <ele>1567.566895</ele>
        <time>2013-06-13T11:19:16Z</time>
      </trkpt>
      <trkpt lat="42.82094" lon="-0.39568">
        <ele>1569.489746</ele>
        <time>2013-06-13T11:19:38Z</time>
      </trkpt>
      <trkpt lat="42.82083" lon="-0.39588">
        <ele>1571.412109</ele>
        <time>2013-06-13T11:19:55Z</time>
      </trkpt>
      <trkpt lat="42.82071" lon="-0.39602">
        <ele>1572.373535</ele>
        <time>2013-06-13T11:20:11Z</time>
      </trkpt>
      <trkpt lat="42.82053" lon="-0.39628">
        <ele>1572.854248</ele>
        <time>2013-06-13T11:20:33Z</time>
      </trkpt>
      <trkpt lat="42.82037" lon="-0.39651">
        <ele>1573.81543</ele>
        <time>2013-06-13T11:20:53Z</time>
      </trkpt>
      <trkpt lat="42.82021" lon="-0.39677">
        <ele>1576.21875</ele>
        <time>2013-06-13T11:21:15Z</time>
      </trkpt>
      <trkpt lat="42.82011" lon="-0.39695">
        <ele>1577.180176</ele>
        <time>2013-06-13T11:21:30Z</time>
      </trkpt>
      <trkpt lat="42.81994" lon="-0.3972">
        <ele>1578.62207</ele>
        <time>2013-06-13T11:21:50Z</time>
      </trkpt>
      <trkpt lat="42.81986" lon="-0.39732">
        <ele>1579.102539</ele>
        <time>2013-06-13T11:22:09Z</time>
      </trkpt>
      <trkpt lat="42.81968" lon="-0.39762">
        <ele>1581.506104</ele>
        <time>2013-06-13T11:22:30Z</time>
      </trkpt>
      <trkpt lat="42.81949" lon="-0.39789">
        <ele>1583.428711</ele>
        <time>2013-06-13T11:22:52Z</time>
      </trkpt>
      <trkpt lat="42.81927" lon="-0.39811">
        <ele>1585.832031</ele>
        <time>2013-06-13T11:23:14Z</time>
      </trkpt>
      <trkpt lat="42.81916" lon="-0.39821">
        <ele>1587.273926</ele>
        <time>2013-06-13T11:23:27Z</time>
      </trkpt>
      <trkpt lat="42.81896" lon="-0.39838">
        <ele>1589.196533</ele>
        <time>2013-06-13T11:23:49Z</time>
      </trkpt>
      <trkpt lat="42.81876" lon="-0.3986">
        <ele>1590.638428</ele>
        <time>2013-06-13T11:24:12Z</time>
      </trkpt>
      <trkpt lat="42.81874" lon="-0.39862">
        <ele>1590.638428</ele>
        <time>2013-06-13T11:24:15Z</time>
      </trkpt>
      <trkpt lat="42.81866" lon="-0.39864">
        <ele>1591.599854</ele>
        <time>2013-06-13T11:24:23Z</time>
      </trkpt>
      <trkpt lat="42.81863" lon="-0.39867">
        <ele>1592.561279</ele>
        <time>2013-06-13T11:24:35Z</time>
      </trkpt>
    </trkseg>
  </trk>
</gpx>